<?xml version="1.0" encoding="UTF-8" standalone="no" ?>
<gpx xmlns="http://www.topografix.com/GPX/1/1" xmlns:xsi="http://www.w3.org/2001/XMLSchema-instance" xsi:schemaLocation="http://www.topografix.com/GPX/1/1 http://www.topografix.com/GPX/1/1/gpx.xsd" version="1.1" creator="VisuGPX - https://www.visugpx.com">
  <metadata>
    <name>Saiguede belles vues  9 km</name>
  </metadata>
  <trk>
    <name><![CDATA[Saiguede belles vues]]></name>
    <trkseg>
      <trkpt lat="43.52863" lon="1.14573">
        <ele>206.18</ele>
        <time>2017-12-16T14:28:37Z</time>
      </trkpt>
      <trkpt lat="43.52862" lon="1.14574">
        <ele>206.28</ele>
        <time>2017-12-16T14:28:38Z</time>
      </trkpt>
      <trkpt lat="43.52861" lon="1.14574">
        <ele>206.26</ele>
        <time>2017-12-16T14:28:39Z</time>
      </trkpt>
      <trkpt lat="43.52855" lon="1.14581">
        <ele>206.37</ele>
        <time>2017-12-16T14:29:10Z</time>
      </trkpt>
      <trkpt lat="43.52846" lon="1.14579">
        <ele>206.35</ele>
        <time>2017-12-16T14:29:31Z</time>
      </trkpt>
      <trkpt lat="43.52845" lon="1.14548">
        <ele>206.24</ele>
        <time>2017-12-16T14:29:55Z</time>
      </trkpt>
      <trkpt lat="43.52845" lon="1.14536">
        <ele>206.23</ele>
        <time>2017-12-16T14:30:01Z</time>
      </trkpt>
      <trkpt lat="43.52845" lon="1.14534">
        <ele>206.23</ele>
        <time>2017-12-16T14:30:02Z</time>
      </trkpt>
      <trkpt lat="43.52844" lon="1.14532">
        <ele>206.22</ele>
        <time>2017-12-16T14:30:03Z</time>
      </trkpt>
      <trkpt lat="43.52843" lon="1.14506">
        <ele>206.29</ele>
        <time>2017-12-16T14:30:20Z</time>
      </trkpt>
      <trkpt lat="43.52846" lon="1.14493">
        <ele>206.29</ele>
        <time>2017-12-16T14:30:27Z</time>
      </trkpt>
      <trkpt lat="43.52846" lon="1.14492">
        <ele>206.29</ele>
        <time>2017-12-16T14:30:28Z</time>
      </trkpt>
      <trkpt lat="43.52846" lon="1.1449">
        <ele>206.29</ele>
        <time>2017-12-16T14:30:29Z</time>
      </trkpt>
      <trkpt lat="43.52847" lon="1.14489">
        <ele>206.29</ele>
        <time>2017-12-16T14:30:30Z</time>
      </trkpt>
      <trkpt lat="43.52847" lon="1.14487">
        <ele>206.29</ele>
        <time>2017-12-16T14:30:31Z</time>
      </trkpt>
      <trkpt lat="43.52847" lon="1.14485">
        <ele>206.29</ele>
        <time>2017-12-16T14:30:32Z</time>
      </trkpt>
      <trkpt lat="43.52861" lon="1.14478">
        <ele>206.45</ele>
        <time>2017-12-16T14:30:46Z</time>
      </trkpt>
      <trkpt lat="43.52862" lon="1.14479">
        <ele>206.46</ele>
        <time>2017-12-16T14:30:47Z</time>
      </trkpt>
      <trkpt lat="43.52864" lon="1.14479">
        <ele>206.47</ele>
        <time>2017-12-16T14:30:48Z</time>
      </trkpt>
      <trkpt lat="43.52868" lon="1.1448">
        <ele>206.48</ele>
        <time>2017-12-16T14:30:49Z</time>
      </trkpt>
      <trkpt lat="43.5287" lon="1.1448">
        <ele>206.48</ele>
        <time>2017-12-16T14:30:50Z</time>
      </trkpt>
      <trkpt lat="43.52871" lon="1.1448">
        <ele>206.48</ele>
        <time>2017-12-16T14:30:51Z</time>
      </trkpt>
      <trkpt lat="43.52873" lon="1.14479">
        <ele>206.48</ele>
        <time>2017-12-16T14:30:52Z</time>
      </trkpt>
      <trkpt lat="43.52873" lon="1.14478">
        <ele>206.48</ele>
        <time>2017-12-16T14:30:53Z</time>
      </trkpt>
      <trkpt lat="43.52886" lon="1.14478">
        <ele>206.09</ele>
        <time>2017-12-16T14:31:04Z</time>
      </trkpt>
      <trkpt lat="43.52898" lon="1.14477">
        <ele>206.02</ele>
        <time>2017-12-16T14:31:20Z</time>
      </trkpt>
      <trkpt lat="43.52903" lon="1.14477">
        <ele>206</ele>
        <time>2017-12-16T14:31:24Z</time>
      </trkpt>
      <trkpt lat="43.52908" lon="1.14478">
        <ele>206</ele>
        <time>2017-12-16T14:31:27Z</time>
      </trkpt>
      <trkpt lat="43.5291" lon="1.14479">
        <ele>206</ele>
        <time>2017-12-16T14:31:28Z</time>
      </trkpt>
      <trkpt lat="43.52928" lon="1.14479">
        <ele>205.8</ele>
        <time>2017-12-16T14:31:40Z</time>
      </trkpt>
      <trkpt lat="43.5295" lon="1.14472">
        <ele>205.98</ele>
        <time>2017-12-16T14:31:56Z</time>
      </trkpt>
      <trkpt lat="43.52969" lon="1.14475">
        <ele>206.33</ele>
        <time>2017-12-16T14:32:12Z</time>
      </trkpt>
      <trkpt lat="43.52981" lon="1.14477">
        <ele>206.78</ele>
        <time>2017-12-16T14:32:23Z</time>
      </trkpt>
      <trkpt lat="43.52983" lon="1.14477">
        <ele>206.92</ele>
        <time>2017-12-16T14:32:24Z</time>
      </trkpt>
      <trkpt lat="43.52984" lon="1.14478">
        <ele>207.02</ele>
        <time>2017-12-16T14:32:25Z</time>
      </trkpt>
      <trkpt lat="43.52993" lon="1.14476">
        <ele>207.99</ele>
        <time>2017-12-16T14:32:35Z</time>
      </trkpt>
      <trkpt lat="43.52994" lon="1.14476">
        <ele>208.11</ele>
        <time>2017-12-16T14:32:36Z</time>
      </trkpt>
      <trkpt lat="43.52996" lon="1.14477">
        <ele>208.41</ele>
        <time>2017-12-16T14:32:37Z</time>
      </trkpt>
      <trkpt lat="43.52997" lon="1.14478">
        <ele>208.41</ele>
        <time>2017-12-16T14:32:38Z</time>
      </trkpt>
      <trkpt lat="43.52999" lon="1.14479">
        <ele>208.7</ele>
        <time>2017-12-16T14:32:39Z</time>
      </trkpt>
      <trkpt lat="43.53" lon="1.1448">
        <ele>208.86</ele>
        <time>2017-12-16T14:32:40Z</time>
      </trkpt>
      <trkpt lat="43.53002" lon="1.1448">
        <ele>209.05</ele>
        <time>2017-12-16T14:32:41Z</time>
      </trkpt>
      <trkpt lat="43.53014" lon="1.14485">
        <ele>211.1</ele>
        <time>2017-12-16T14:32:55Z</time>
      </trkpt>
      <trkpt lat="43.53032" lon="1.14491">
        <ele>214.06</ele>
        <time>2017-12-16T14:33:13Z</time>
      </trkpt>
      <trkpt lat="43.53044" lon="1.14504">
        <ele>216.45</ele>
        <time>2017-12-16T14:33:29Z</time>
      </trkpt>
      <trkpt lat="43.53058" lon="1.14512">
        <ele>219.23</ele>
        <time>2017-12-16T14:33:46Z</time>
      </trkpt>
      <trkpt lat="43.53074" lon="1.14521">
        <ele>221.65</ele>
        <time>2017-12-16T14:34:00Z</time>
      </trkpt>
      <trkpt lat="43.53088" lon="1.14528">
        <ele>224.19</ele>
        <time>2017-12-16T14:34:15Z</time>
      </trkpt>
      <trkpt lat="43.53104" lon="1.14533">
        <ele>226.92</ele>
        <time>2017-12-16T14:34:33Z</time>
      </trkpt>
      <trkpt lat="43.53122" lon="1.14543">
        <ele>228.94</ele>
        <time>2017-12-16T14:34:47Z</time>
      </trkpt>
      <trkpt lat="43.53132" lon="1.14551">
        <ele>230.43</ele>
        <time>2017-12-16T14:34:58Z</time>
      </trkpt>
      <trkpt lat="43.53135" lon="1.14553">
        <ele>230.7</ele>
        <time>2017-12-16T14:35:00Z</time>
      </trkpt>
      <trkpt lat="43.53149" lon="1.14565">
        <ele>233.46</ele>
        <time>2017-12-16T14:35:15Z</time>
      </trkpt>
      <trkpt lat="43.53169" lon="1.14574">
        <ele>235.76</ele>
        <time>2017-12-16T14:35:29Z</time>
      </trkpt>
      <trkpt lat="43.53186" lon="1.14584">
        <ele>237.99</ele>
        <time>2017-12-16T14:35:44Z</time>
      </trkpt>
      <trkpt lat="43.53197" lon="1.14586">
        <ele>239.54</ele>
        <time>2017-12-16T14:35:57Z</time>
      </trkpt>
      <trkpt lat="43.532" lon="1.14584">
        <ele>240.53</ele>
        <time>2017-12-16T14:36:24Z</time>
      </trkpt>
      <trkpt lat="43.53214" lon="1.14591">
        <ele>240.99</ele>
        <time>2017-12-16T14:36:50Z</time>
      </trkpt>
      <trkpt lat="43.53223" lon="1.14593">
        <ele>241.45</ele>
        <time>2017-12-16T14:36:58Z</time>
      </trkpt>
      <trkpt lat="43.53248" lon="1.146">
        <ele>243.74</ele>
        <time>2017-12-16T14:37:20Z</time>
      </trkpt>
      <trkpt lat="43.53267" lon="1.14605">
        <ele>245.94</ele>
        <time>2017-12-16T14:37:40Z</time>
      </trkpt>
      <trkpt lat="43.53293" lon="1.14613">
        <ele>248.43</ele>
        <time>2017-12-16T14:38:01Z</time>
      </trkpt>
      <trkpt lat="43.53313" lon="1.14619">
        <ele>250.25</ele>
        <time>2017-12-16T14:38:19Z</time>
      </trkpt>
      <trkpt lat="43.53322" lon="1.14622">
        <ele>250.9</ele>
        <time>2017-12-16T14:38:27Z</time>
      </trkpt>
      <trkpt lat="43.53336" lon="1.14626">
        <ele>251.82</ele>
        <time>2017-12-16T14:38:41Z</time>
      </trkpt>
      <trkpt lat="43.53356" lon="1.14633">
        <ele>253.67</ele>
        <time>2017-12-16T14:38:55Z</time>
      </trkpt>
      <trkpt lat="43.53361" lon="1.14636">
        <ele>253.97</ele>
        <time>2017-12-16T14:39:00Z</time>
      </trkpt>
      <trkpt lat="43.53367" lon="1.14638">
        <ele>254.42</ele>
        <time>2017-12-16T14:39:04Z</time>
      </trkpt>
      <trkpt lat="43.53369" lon="1.14638">
        <ele>254.54</ele>
        <time>2017-12-16T14:39:05Z</time>
      </trkpt>
      <trkpt lat="43.53371" lon="1.14638">
        <ele>254.6</ele>
        <time>2017-12-16T14:39:06Z</time>
      </trkpt>
      <trkpt lat="43.53387" lon="1.14643">
        <ele>256.11</ele>
        <time>2017-12-16T14:39:20Z</time>
      </trkpt>
      <trkpt lat="43.53416" lon="1.14651">
        <ele>258.84</ele>
        <time>2017-12-16T14:39:43Z</time>
      </trkpt>
      <trkpt lat="43.53454" lon="1.1466">
        <ele>261.8</ele>
        <time>2017-12-16T14:40:10Z</time>
      </trkpt>
      <trkpt lat="43.5346" lon="1.14661">
        <ele>262.27</ele>
        <time>2017-12-16T14:40:15Z</time>
      </trkpt>
      <trkpt lat="43.53461" lon="1.14662">
        <ele>262.39</ele>
        <time>2017-12-16T14:40:16Z</time>
      </trkpt>
      <trkpt lat="43.53482" lon="1.14666">
        <ele>263.9</ele>
        <time>2017-12-16T14:40:34Z</time>
      </trkpt>
      <trkpt lat="43.53483" lon="1.14666">
        <ele>264.1</ele>
        <time>2017-12-16T14:40:36Z</time>
      </trkpt>
      <trkpt lat="43.53484" lon="1.14666">
        <ele>264.16</ele>
        <time>2017-12-16T14:40:37Z</time>
      </trkpt>
      <trkpt lat="43.53485" lon="1.14666">
        <ele>264.21</ele>
        <time>2017-12-16T14:40:38Z</time>
      </trkpt>
      <trkpt lat="43.53497" lon="1.14664">
        <ele>265.43</ele>
        <time>2017-12-16T14:40:53Z</time>
      </trkpt>
      <trkpt lat="43.53497" lon="1.1466">
        <ele>265.87</ele>
        <time>2017-12-16T14:41:11Z</time>
      </trkpt>
      <trkpt lat="43.53495" lon="1.14656">
        <ele>266.05</ele>
        <time>2017-12-16T14:41:20Z</time>
      </trkpt>
      <trkpt lat="43.53495" lon="1.14654">
        <ele>266.06</ele>
        <time>2017-12-16T14:41:21Z</time>
      </trkpt>
      <trkpt lat="43.53493" lon="1.14652">
        <ele>266.05</ele>
        <time>2017-12-16T14:41:22Z</time>
      </trkpt>
      <trkpt lat="43.53493" lon="1.14652">
        <ele>266.04</ele>
        <time>2017-12-16T14:41:23Z</time>
      </trkpt>
      <trkpt lat="43.53492" lon="1.14648">
        <ele>266</ele>
        <time>2017-12-16T14:41:26Z</time>
      </trkpt>
      <trkpt lat="43.53492" lon="1.14646">
        <ele>265.99</ele>
        <time>2017-12-16T14:41:27Z</time>
      </trkpt>
      <trkpt lat="43.53493" lon="1.14645">
        <ele>265.99</ele>
        <time>2017-12-16T14:41:28Z</time>
      </trkpt>
      <trkpt lat="43.53493" lon="1.14644">
        <ele>265.99</ele>
        <time>2017-12-16T14:41:29Z</time>
      </trkpt>
      <trkpt lat="43.53494" lon="1.14634">
        <ele>266.13</ele>
        <time>2017-12-16T14:41:36Z</time>
      </trkpt>
      <trkpt lat="43.53494" lon="1.14632">
        <ele>266.2</ele>
        <time>2017-12-16T14:41:37Z</time>
      </trkpt>
      <trkpt lat="43.53494" lon="1.1463">
        <ele>266.2</ele>
        <time>2017-12-16T14:41:38Z</time>
      </trkpt>
      <trkpt lat="43.53494" lon="1.14622">
        <ele>266.37</ele>
        <time>2017-12-16T14:41:43Z</time>
      </trkpt>
      <trkpt lat="43.53494" lon="1.14621">
        <ele>266.39</ele>
        <time>2017-12-16T14:41:44Z</time>
      </trkpt>
      <trkpt lat="43.53494" lon="1.14619">
        <ele>266.4</ele>
        <time>2017-12-16T14:41:45Z</time>
      </trkpt>
      <trkpt lat="43.53494" lon="1.14617">
        <ele>266.4</ele>
        <time>2017-12-16T14:41:46Z</time>
      </trkpt>
      <trkpt lat="43.53494" lon="1.14616">
        <ele>266.4</ele>
        <time>2017-12-16T14:41:47Z</time>
      </trkpt>
      <trkpt lat="43.53494" lon="1.14614">
        <ele>266.4</ele>
        <time>2017-12-16T14:41:48Z</time>
      </trkpt>
      <trkpt lat="43.53494" lon="1.14611">
        <ele>266.44</ele>
        <time>2017-12-16T14:41:50Z</time>
      </trkpt>
      <trkpt lat="43.53496" lon="1.14594">
        <ele>266.58</ele>
        <time>2017-12-16T14:42:00Z</time>
      </trkpt>
      <trkpt lat="43.53495" lon="1.14588">
        <ele>266.73</ele>
        <time>2017-12-16T14:42:04Z</time>
      </trkpt>
      <trkpt lat="43.53495" lon="1.14586">
        <ele>266.76</ele>
        <time>2017-12-16T14:42:05Z</time>
      </trkpt>
      <trkpt lat="43.53495" lon="1.14584">
        <ele>266.82</ele>
        <time>2017-12-16T14:42:06Z</time>
      </trkpt>
      <trkpt lat="43.53496" lon="1.14565">
        <ele>266.9</ele>
        <time>2017-12-16T14:42:16Z</time>
      </trkpt>
      <trkpt lat="43.53496" lon="1.14563">
        <ele>266.9</ele>
        <time>2017-12-16T14:42:17Z</time>
      </trkpt>
      <trkpt lat="43.53496" lon="1.14562">
        <ele>266.88</ele>
        <time>2017-12-16T14:42:18Z</time>
      </trkpt>
      <trkpt lat="43.53496" lon="1.14561">
        <ele>266.86</ele>
        <time>2017-12-16T14:42:19Z</time>
      </trkpt>
      <trkpt lat="43.53496" lon="1.1456">
        <ele>266.85</ele>
        <time>2017-12-16T14:42:20Z</time>
      </trkpt>
      <trkpt lat="43.53497" lon="1.14539">
        <ele>267.21</ele>
        <time>2017-12-16T14:42:33Z</time>
      </trkpt>
      <trkpt lat="43.535" lon="1.1452">
        <ele>268.32</ele>
        <time>2017-12-16T14:42:47Z</time>
      </trkpt>
      <trkpt lat="43.535" lon="1.14519">
        <ele>268.35</ele>
        <time>2017-12-16T14:42:48Z</time>
      </trkpt>
      <trkpt lat="43.535" lon="1.14518">
        <ele>268.36</ele>
        <time>2017-12-16T14:42:49Z</time>
      </trkpt>
      <trkpt lat="43.535" lon="1.14497">
        <ele>268.96</ele>
        <time>2017-12-16T14:43:01Z</time>
      </trkpt>
      <trkpt lat="43.53501" lon="1.1448">
        <ele>269.4</ele>
        <time>2017-12-16T14:43:11Z</time>
      </trkpt>
      <trkpt lat="43.53501" lon="1.14477">
        <ele>269.42</ele>
        <time>2017-12-16T14:43:13Z</time>
      </trkpt>
      <trkpt lat="43.53502" lon="1.14476">
        <ele>269.42</ele>
        <time>2017-12-16T14:43:14Z</time>
      </trkpt>
      <trkpt lat="43.53502" lon="1.14475">
        <ele>269.42</ele>
        <time>2017-12-16T14:43:15Z</time>
      </trkpt>
      <trkpt lat="43.53503" lon="1.14474">
        <ele>269.42</ele>
        <time>2017-12-16T14:43:16Z</time>
      </trkpt>
      <trkpt lat="43.53503" lon="1.14472">
        <ele>269.4</ele>
        <time>2017-12-16T14:43:17Z</time>
      </trkpt>
      <trkpt lat="43.53504" lon="1.1447">
        <ele>269.4</ele>
        <time>2017-12-16T14:43:18Z</time>
      </trkpt>
      <trkpt lat="43.53504" lon="1.14468">
        <ele>269.4</ele>
        <time>2017-12-16T14:43:19Z</time>
      </trkpt>
      <trkpt lat="43.53505" lon="1.14458">
        <ele>269.53</ele>
        <time>2017-12-16T14:43:26Z</time>
      </trkpt>
      <trkpt lat="43.53504" lon="1.14456">
        <ele>269.56</ele>
        <time>2017-12-16T14:43:27Z</time>
      </trkpt>
      <trkpt lat="43.53504" lon="1.14453">
        <ele>269.57</ele>
        <time>2017-12-16T14:43:28Z</time>
      </trkpt>
      <trkpt lat="43.53504" lon="1.14442">
        <ele>270.27</ele>
        <time>2017-12-16T14:43:35Z</time>
      </trkpt>
      <trkpt lat="43.53505" lon="1.1444">
        <ele>270.45</ele>
        <time>2017-12-16T14:43:36Z</time>
      </trkpt>
      <trkpt lat="43.53505" lon="1.14438">
        <ele>270.56</ele>
        <time>2017-12-16T14:43:37Z</time>
      </trkpt>
      <trkpt lat="43.53504" lon="1.14435">
        <ele>270.63</ele>
        <time>2017-12-16T14:43:38Z</time>
      </trkpt>
      <trkpt lat="43.53504" lon="1.14434">
        <ele>270.67</ele>
        <time>2017-12-16T14:43:39Z</time>
      </trkpt>
      <trkpt lat="43.53504" lon="1.14433">
        <ele>270.71</ele>
        <time>2017-12-16T14:43:40Z</time>
      </trkpt>
      <trkpt lat="43.53504" lon="1.14431">
        <ele>270.73</ele>
        <time>2017-12-16T14:43:41Z</time>
      </trkpt>
      <trkpt lat="43.53504" lon="1.1443">
        <ele>270.75</ele>
        <time>2017-12-16T14:43:42Z</time>
      </trkpt>
      <trkpt lat="43.53504" lon="1.14429">
        <ele>270.79</ele>
        <time>2017-12-16T14:43:43Z</time>
      </trkpt>
      <trkpt lat="43.53505" lon="1.14428">
        <ele>270.81</ele>
        <time>2017-12-16T14:43:44Z</time>
      </trkpt>
      <trkpt lat="43.53506" lon="1.14425">
        <ele>270.82</ele>
        <time>2017-12-16T14:43:46Z</time>
      </trkpt>
      <trkpt lat="43.53507" lon="1.14422">
        <ele>270.83</ele>
        <time>2017-12-16T14:43:47Z</time>
      </trkpt>
      <trkpt lat="43.53507" lon="1.1442">
        <ele>270.86</ele>
        <time>2017-12-16T14:43:48Z</time>
      </trkpt>
      <trkpt lat="43.53507" lon="1.14418">
        <ele>270.87</ele>
        <time>2017-12-16T14:43:49Z</time>
      </trkpt>
      <trkpt lat="43.53508" lon="1.14416">
        <ele>270.9</ele>
        <time>2017-12-16T14:43:50Z</time>
      </trkpt>
      <trkpt lat="43.53508" lon="1.14415">
        <ele>270.91</ele>
        <time>2017-12-16T14:43:51Z</time>
      </trkpt>
      <trkpt lat="43.53508" lon="1.14414">
        <ele>270.92</ele>
        <time>2017-12-16T14:43:52Z</time>
      </trkpt>
      <trkpt lat="43.53507" lon="1.14412">
        <ele>270.92</ele>
        <time>2017-12-16T14:43:53Z</time>
      </trkpt>
      <trkpt lat="43.53506" lon="1.1441">
        <ele>270.92</ele>
        <time>2017-12-16T14:43:54Z</time>
      </trkpt>
      <trkpt lat="43.53506" lon="1.14408">
        <ele>270.92</ele>
        <time>2017-12-16T14:43:55Z</time>
      </trkpt>
      <trkpt lat="43.53506" lon="1.14407">
        <ele>271.2</ele>
        <time>2017-12-16T14:43:56Z</time>
      </trkpt>
      <trkpt lat="43.53505" lon="1.14405">
        <ele>271.35</ele>
        <time>2017-12-16T14:43:57Z</time>
      </trkpt>
      <trkpt lat="43.53506" lon="1.14403">
        <ele>271.49</ele>
        <time>2017-12-16T14:43:58Z</time>
      </trkpt>
      <trkpt lat="43.53506" lon="1.14401">
        <ele>271.62</ele>
        <time>2017-12-16T14:43:59Z</time>
      </trkpt>
      <trkpt lat="43.53505" lon="1.14385">
        <ele>271.99</ele>
        <time>2017-12-16T14:44:09Z</time>
      </trkpt>
      <trkpt lat="43.53506" lon="1.14369">
        <ele>272.38</ele>
        <time>2017-12-16T14:44:18Z</time>
      </trkpt>
      <trkpt lat="43.53505" lon="1.14367">
        <ele>272.42</ele>
        <time>2017-12-16T14:44:19Z</time>
      </trkpt>
      <trkpt lat="43.53505" lon="1.14365">
        <ele>272.54</ele>
        <time>2017-12-16T14:44:20Z</time>
      </trkpt>
      <trkpt lat="43.53505" lon="1.14363">
        <ele>272.61</ele>
        <time>2017-12-16T14:44:21Z</time>
      </trkpt>
      <trkpt lat="43.53505" lon="1.14361">
        <ele>272.67</ele>
        <time>2017-12-16T14:44:22Z</time>
      </trkpt>
      <trkpt lat="43.53505" lon="1.1436">
        <ele>272.72</ele>
        <time>2017-12-16T14:44:23Z</time>
      </trkpt>
      <trkpt lat="43.53506" lon="1.14359">
        <ele>272.79</ele>
        <time>2017-12-16T14:44:24Z</time>
      </trkpt>
      <trkpt lat="43.53506" lon="1.14357">
        <ele>272.83</ele>
        <time>2017-12-16T14:44:25Z</time>
      </trkpt>
      <trkpt lat="43.53506" lon="1.14354">
        <ele>272.85</ele>
        <time>2017-12-16T14:44:26Z</time>
      </trkpt>
      <trkpt lat="43.53506" lon="1.1434">
        <ele>273.84</ele>
        <time>2017-12-16T14:44:35Z</time>
      </trkpt>
      <trkpt lat="43.53505" lon="1.14339">
        <ele>273.98</ele>
        <time>2017-12-16T14:44:36Z</time>
      </trkpt>
      <trkpt lat="43.53505" lon="1.14337">
        <ele>274.08</ele>
        <time>2017-12-16T14:44:37Z</time>
      </trkpt>
      <trkpt lat="43.53505" lon="1.14335">
        <ele>274.14</ele>
        <time>2017-12-16T14:44:38Z</time>
      </trkpt>
      <trkpt lat="43.53504" lon="1.14333">
        <ele>274.3</ele>
        <time>2017-12-16T14:44:39Z</time>
      </trkpt>
      <trkpt lat="43.53505" lon="1.14311">
        <ele>275.28</ele>
        <time>2017-12-16T14:44:51Z</time>
      </trkpt>
      <trkpt lat="43.53497" lon="1.14296">
        <ele>275.92</ele>
        <time>2017-12-16T14:45:03Z</time>
      </trkpt>
      <trkpt lat="43.53498" lon="1.14302">
        <ele>275.98</ele>
        <time>2017-12-16T14:45:06Z</time>
      </trkpt>
      <trkpt lat="43.53497" lon="1.14299">
        <ele>276.16</ele>
        <time>2017-12-16T14:45:09Z</time>
      </trkpt>
      <trkpt lat="43.53497" lon="1.14297">
        <ele>276.18</ele>
        <time>2017-12-16T14:45:10Z</time>
      </trkpt>
      <trkpt lat="43.53496" lon="1.14295">
        <ele>276.19</ele>
        <time>2017-12-16T14:45:11Z</time>
      </trkpt>
      <trkpt lat="43.53496" lon="1.14293">
        <ele>276.2</ele>
        <time>2017-12-16T14:45:12Z</time>
      </trkpt>
      <trkpt lat="43.53495" lon="1.1429">
        <ele>276.2</ele>
        <time>2017-12-16T14:45:13Z</time>
      </trkpt>
      <trkpt lat="43.53494" lon="1.14288">
        <ele>276.23</ele>
        <time>2017-12-16T14:45:14Z</time>
      </trkpt>
      <trkpt lat="43.53493" lon="1.14286">
        <ele>276.25</ele>
        <time>2017-12-16T14:45:15Z</time>
      </trkpt>
      <trkpt lat="43.53493" lon="1.14285">
        <ele>276.26</ele>
        <time>2017-12-16T14:45:16Z</time>
      </trkpt>
      <trkpt lat="43.53492" lon="1.14283">
        <ele>276.26</ele>
        <time>2017-12-16T14:45:17Z</time>
      </trkpt>
      <trkpt lat="43.53491" lon="1.14281">
        <ele>276.26</ele>
        <time>2017-12-16T14:45:18Z</time>
      </trkpt>
      <trkpt lat="43.53492" lon="1.14279">
        <ele>276.26</ele>
        <time>2017-12-16T14:45:19Z</time>
      </trkpt>
      <trkpt lat="43.53492" lon="1.14277">
        <ele>276.26</ele>
        <time>2017-12-16T14:45:20Z</time>
      </trkpt>
      <trkpt lat="43.53492" lon="1.14276">
        <ele>276.26</ele>
        <time>2017-12-16T14:45:21Z</time>
      </trkpt>
      <trkpt lat="43.53491" lon="1.14275">
        <ele>276.26</ele>
        <time>2017-12-16T14:45:22Z</time>
      </trkpt>
      <trkpt lat="43.53491" lon="1.14272">
        <ele>276.24</ele>
        <time>2017-12-16T14:45:23Z</time>
      </trkpt>
      <trkpt lat="43.53489" lon="1.14257">
        <ele>276.19</ele>
        <time>2017-12-16T14:45:33Z</time>
      </trkpt>
      <trkpt lat="43.53488" lon="1.14252">
        <ele>276.26</ele>
        <time>2017-12-16T14:45:36Z</time>
      </trkpt>
      <trkpt lat="43.53488" lon="1.14251">
        <ele>276.29</ele>
        <time>2017-12-16T14:45:37Z</time>
      </trkpt>
      <trkpt lat="43.53484" lon="1.14244">
        <ele>276.33</ele>
        <time>2017-12-16T14:45:41Z</time>
      </trkpt>
      <trkpt lat="43.53484" lon="1.14243">
        <ele>276.35</ele>
        <time>2017-12-16T14:45:42Z</time>
      </trkpt>
      <trkpt lat="43.53483" lon="1.14241">
        <ele>276.39</ele>
        <time>2017-12-16T14:45:43Z</time>
      </trkpt>
      <trkpt lat="43.53483" lon="1.1424">
        <ele>276.41</ele>
        <time>2017-12-16T14:45:44Z</time>
      </trkpt>
      <trkpt lat="43.53483" lon="1.14239">
        <ele>276.41</ele>
        <time>2017-12-16T14:45:45Z</time>
      </trkpt>
      <trkpt lat="43.53482" lon="1.14238">
        <ele>276.41</ele>
        <time>2017-12-16T14:45:46Z</time>
      </trkpt>
      <trkpt lat="43.53476" lon="1.1423">
        <ele>276.36</ele>
        <time>2017-12-16T14:45:58Z</time>
      </trkpt>
      <trkpt lat="43.53476" lon="1.14234">
        <ele>276.44</ele>
        <time>2017-12-16T14:46:12Z</time>
      </trkpt>
      <trkpt lat="43.5348" lon="1.14241">
        <ele>276.66</ele>
        <time>2017-12-16T14:46:39Z</time>
      </trkpt>
      <trkpt lat="43.5348" lon="1.14235">
        <ele>276.66</ele>
        <time>2017-12-16T14:46:42Z</time>
      </trkpt>
      <trkpt lat="43.5348" lon="1.14233">
        <ele>276.65</ele>
        <time>2017-12-16T14:46:43Z</time>
      </trkpt>
      <trkpt lat="43.53482" lon="1.14222">
        <ele>276.63</ele>
        <time>2017-12-16T14:46:47Z</time>
      </trkpt>
      <trkpt lat="43.53473" lon="1.14187">
        <ele>276.49</ele>
        <time>2017-12-16T14:47:05Z</time>
      </trkpt>
      <trkpt lat="43.53465" lon="1.14147">
        <ele>275.8</ele>
        <time>2017-12-16T14:47:24Z</time>
      </trkpt>
      <trkpt lat="43.53462" lon="1.1413">
        <ele>275.4</ele>
        <time>2017-12-16T14:47:34Z</time>
      </trkpt>
      <trkpt lat="43.53462" lon="1.14114">
        <ele>275.03</ele>
        <time>2017-12-16T14:47:43Z</time>
      </trkpt>
      <trkpt lat="43.53461" lon="1.14104">
        <ele>274.69</ele>
        <time>2017-12-16T14:47:49Z</time>
      </trkpt>
      <trkpt lat="43.53461" lon="1.14084">
        <ele>274.34</ele>
        <time>2017-12-16T14:48:00Z</time>
      </trkpt>
      <trkpt lat="43.53457" lon="1.14062">
        <ele>273.81</ele>
        <time>2017-12-16T14:48:12Z</time>
      </trkpt>
      <trkpt lat="43.53458" lon="1.14052">
        <ele>273.45</ele>
        <time>2017-12-16T14:48:17Z</time>
      </trkpt>
      <trkpt lat="43.53457" lon="1.14032">
        <ele>272.65</ele>
        <time>2017-12-16T14:48:28Z</time>
      </trkpt>
      <trkpt lat="43.53456" lon="1.1403">
        <ele>272.59</ele>
        <time>2017-12-16T14:48:29Z</time>
      </trkpt>
      <trkpt lat="43.53453" lon="1.14009">
        <ele>271.39</ele>
        <time>2017-12-16T14:48:40Z</time>
      </trkpt>
      <trkpt lat="43.53453" lon="1.14002">
        <ele>270.93</ele>
        <time>2017-12-16T14:48:45Z</time>
      </trkpt>
      <trkpt lat="43.53452" lon="1.13988">
        <ele>269.75</ele>
        <time>2017-12-16T14:48:53Z</time>
      </trkpt>
      <trkpt lat="43.53449" lon="1.13964">
        <ele>269.22</ele>
        <time>2017-12-16T14:49:06Z</time>
      </trkpt>
      <trkpt lat="43.53448" lon="1.13952">
        <ele>268.89</ele>
        <time>2017-12-16T14:49:12Z</time>
      </trkpt>
      <trkpt lat="43.53448" lon="1.1395">
        <ele>268.82</ele>
        <time>2017-12-16T14:49:13Z</time>
      </trkpt>
      <trkpt lat="43.53447" lon="1.13948">
        <ele>268.77</ele>
        <time>2017-12-16T14:49:14Z</time>
      </trkpt>
      <trkpt lat="43.53447" lon="1.13945">
        <ele>268.68</ele>
        <time>2017-12-16T14:49:16Z</time>
      </trkpt>
      <trkpt lat="43.53444" lon="1.13922">
        <ele>267.72</ele>
        <time>2017-12-16T14:49:29Z</time>
      </trkpt>
      <trkpt lat="43.53439" lon="1.13893">
        <ele>267.09</ele>
        <time>2017-12-16T14:49:45Z</time>
      </trkpt>
      <trkpt lat="43.53438" lon="1.13867">
        <ele>266.54</ele>
        <time>2017-12-16T14:50:01Z</time>
      </trkpt>
      <trkpt lat="43.53436" lon="1.13865">
        <ele>266.52</ele>
        <time>2017-12-16T14:50:03Z</time>
      </trkpt>
      <trkpt lat="43.53435" lon="1.13863">
        <ele>266.51</ele>
        <time>2017-12-16T14:50:04Z</time>
      </trkpt>
      <trkpt lat="43.53435" lon="1.13861">
        <ele>266.49</ele>
        <time>2017-12-16T14:50:05Z</time>
      </trkpt>
      <trkpt lat="43.53434" lon="1.1386">
        <ele>266.44</ele>
        <time>2017-12-16T14:50:06Z</time>
      </trkpt>
      <trkpt lat="43.53434" lon="1.13858">
        <ele>266.42</ele>
        <time>2017-12-16T14:50:07Z</time>
      </trkpt>
      <trkpt lat="43.53434" lon="1.13853">
        <ele>266.26</ele>
        <time>2017-12-16T14:50:11Z</time>
      </trkpt>
      <trkpt lat="43.53435" lon="1.13852">
        <ele>266.23</ele>
        <time>2017-12-16T14:50:12Z</time>
      </trkpt>
      <trkpt lat="43.53435" lon="1.13851">
        <ele>266.18</ele>
        <time>2017-12-16T14:50:13Z</time>
      </trkpt>
      <trkpt lat="43.53435" lon="1.13841">
        <ele>265.95</ele>
        <time>2017-12-16T14:50:26Z</time>
      </trkpt>
      <trkpt lat="43.53434" lon="1.13838">
        <ele>265.9</ele>
        <time>2017-12-16T14:50:28Z</time>
      </trkpt>
      <trkpt lat="43.53434" lon="1.13832">
        <ele>265.55</ele>
        <time>2017-12-16T14:50:36Z</time>
      </trkpt>
      <trkpt lat="43.53434" lon="1.13835">
        <ele>265.44</ele>
        <time>2017-12-16T14:50:40Z</time>
      </trkpt>
      <trkpt lat="43.53436" lon="1.1382">
        <ele>265.38</ele>
        <time>2017-12-16T14:50:58Z</time>
      </trkpt>
      <trkpt lat="43.5343" lon="1.13782">
        <ele>265.23</ele>
        <time>2017-12-16T14:51:20Z</time>
      </trkpt>
      <trkpt lat="43.5343" lon="1.1376">
        <ele>265.2</ele>
        <time>2017-12-16T14:51:36Z</time>
      </trkpt>
      <trkpt lat="43.5343" lon="1.13757">
        <ele>265.2</ele>
        <time>2017-12-16T14:51:37Z</time>
      </trkpt>
      <trkpt lat="43.5343" lon="1.13755">
        <ele>265.2</ele>
        <time>2017-12-16T14:51:38Z</time>
      </trkpt>
      <trkpt lat="43.53423" lon="1.1373">
        <ele>265.05</ele>
        <time>2017-12-16T14:51:53Z</time>
      </trkpt>
      <trkpt lat="43.53416" lon="1.137">
        <ele>265.26</ele>
        <time>2017-12-16T14:52:13Z</time>
      </trkpt>
      <trkpt lat="43.53414" lon="1.13669">
        <ele>265.65</ele>
        <time>2017-12-16T14:52:31Z</time>
      </trkpt>
      <trkpt lat="43.53412" lon="1.13641">
        <ele>265.93</ele>
        <time>2017-12-16T14:52:49Z</time>
      </trkpt>
      <trkpt lat="43.5341" lon="1.13607">
        <ele>265.9</ele>
        <time>2017-12-16T14:53:08Z</time>
      </trkpt>
      <trkpt lat="43.53412" lon="1.1358">
        <ele>265.9</ele>
        <time>2017-12-16T14:53:29Z</time>
      </trkpt>
      <trkpt lat="43.53414" lon="1.13554">
        <ele>265.94</ele>
        <time>2017-12-16T14:53:46Z</time>
      </trkpt>
      <trkpt lat="43.53413" lon="1.1353">
        <ele>266.15</ele>
        <time>2017-12-16T14:54:01Z</time>
      </trkpt>
      <trkpt lat="43.53413" lon="1.13529">
        <ele>266.16</ele>
        <time>2017-12-16T14:54:02Z</time>
      </trkpt>
      <trkpt lat="43.53412" lon="1.13512">
        <ele>266.18</ele>
        <time>2017-12-16T14:54:11Z</time>
      </trkpt>
      <trkpt lat="43.53412" lon="1.1351">
        <ele>266.18</ele>
        <time>2017-12-16T14:54:12Z</time>
      </trkpt>
      <trkpt lat="43.53411" lon="1.13505">
        <ele>266.13</ele>
        <time>2017-12-16T14:54:14Z</time>
      </trkpt>
      <trkpt lat="43.53411" lon="1.13504">
        <ele>266.13</ele>
        <time>2017-12-16T14:54:15Z</time>
      </trkpt>
      <trkpt lat="43.53413" lon="1.1348">
        <ele>266.31</ele>
        <time>2017-12-16T14:54:32Z</time>
      </trkpt>
      <trkpt lat="43.53421" lon="1.13439">
        <ele>266.82</ele>
        <time>2017-12-16T14:55:01Z</time>
      </trkpt>
      <trkpt lat="43.53419" lon="1.13424">
        <ele>267.08</ele>
        <time>2017-12-16T14:55:18Z</time>
      </trkpt>
      <trkpt lat="43.53424" lon="1.13428">
        <ele>266.94</ele>
        <time>2017-12-16T14:56:05Z</time>
      </trkpt>
      <trkpt lat="43.53421" lon="1.13408">
        <ele>266.91</ele>
        <time>2017-12-16T14:56:50Z</time>
      </trkpt>
      <trkpt lat="43.53421" lon="1.13403">
        <ele>266.92</ele>
        <time>2017-12-16T14:56:53Z</time>
      </trkpt>
      <trkpt lat="43.5342" lon="1.134">
        <ele>266.93</ele>
        <time>2017-12-16T14:56:54Z</time>
      </trkpt>
      <trkpt lat="43.53414" lon="1.13367">
        <ele>267.07</ele>
        <time>2017-12-16T14:57:13Z</time>
      </trkpt>
      <trkpt lat="43.53413" lon="1.13342">
        <ele>267.26</ele>
        <time>2017-12-16T14:57:30Z</time>
      </trkpt>
      <trkpt lat="43.53413" lon="1.1331">
        <ele>267.74</ele>
        <time>2017-12-16T14:57:49Z</time>
      </trkpt>
      <trkpt lat="43.53415" lon="1.1328">
        <ele>268.46</ele>
        <time>2017-12-16T14:58:08Z</time>
      </trkpt>
      <trkpt lat="43.53411" lon="1.13261">
        <ele>268.89</ele>
        <time>2017-12-16T14:58:19Z</time>
      </trkpt>
      <trkpt lat="43.53411" lon="1.1326">
        <ele>268.94</ele>
        <time>2017-12-16T14:58:20Z</time>
      </trkpt>
      <trkpt lat="43.53406" lon="1.13211">
        <ele>271.05</ele>
        <time>2017-12-16T14:58:49Z</time>
      </trkpt>
      <trkpt lat="43.53399" lon="1.1317">
        <ele>272.72</ele>
        <time>2017-12-16T14:59:13Z</time>
      </trkpt>
      <trkpt lat="43.53392" lon="1.13145">
        <ele>273.5</ele>
        <time>2017-12-16T14:59:34Z</time>
      </trkpt>
      <trkpt lat="43.53387" lon="1.13099">
        <ele>273.93</ele>
        <time>2017-12-16T15:00:01Z</time>
      </trkpt>
      <trkpt lat="43.53382" lon="1.13057">
        <ele>273.24</ele>
        <time>2017-12-16T15:00:27Z</time>
      </trkpt>
      <trkpt lat="43.53374" lon="1.13018">
        <ele>271.88</ele>
        <time>2017-12-16T15:00:51Z</time>
      </trkpt>
      <trkpt lat="43.53372" lon="1.12986">
        <ele>271.3</ele>
        <time>2017-12-16T15:01:12Z</time>
      </trkpt>
      <trkpt lat="43.53372" lon="1.12968">
        <ele>271.08</ele>
        <time>2017-12-16T15:01:41Z</time>
      </trkpt>
      <trkpt lat="43.53367" lon="1.12941">
        <ele>270.78</ele>
        <time>2017-12-16T15:02:02Z</time>
      </trkpt>
      <trkpt lat="43.53367" lon="1.12933">
        <ele>270.73</ele>
        <time>2017-12-16T15:02:08Z</time>
      </trkpt>
      <trkpt lat="43.53364" lon="1.1292">
        <ele>270.73</ele>
        <time>2017-12-16T15:02:17Z</time>
      </trkpt>
      <trkpt lat="43.53364" lon="1.12897">
        <ele>271.14</ele>
        <time>2017-12-16T15:02:41Z</time>
      </trkpt>
      <trkpt lat="43.53354" lon="1.12865">
        <ele>271.11</ele>
        <time>2017-12-16T15:03:03Z</time>
      </trkpt>
      <trkpt lat="43.53352" lon="1.12837">
        <ele>271.36</ele>
        <time>2017-12-16T15:03:22Z</time>
      </trkpt>
      <trkpt lat="43.53344" lon="1.12793">
        <ele>271.93</ele>
        <time>2017-12-16T15:03:45Z</time>
      </trkpt>
      <trkpt lat="43.53341" lon="1.12764">
        <ele>272.55</ele>
        <time>2017-12-16T15:04:04Z</time>
      </trkpt>
      <trkpt lat="43.53338" lon="1.12737">
        <ele>273.25</ele>
        <time>2017-12-16T15:04:24Z</time>
      </trkpt>
      <trkpt lat="43.53335" lon="1.12711">
        <ele>274.49</ele>
        <time>2017-12-16T15:04:42Z</time>
      </trkpt>
      <trkpt lat="43.53334" lon="1.12705">
        <ele>274.64</ele>
        <time>2017-12-16T15:04:45Z</time>
      </trkpt>
      <trkpt lat="43.53325" lon="1.12672">
        <ele>276.34</ele>
        <time>2017-12-16T15:05:04Z</time>
      </trkpt>
      <trkpt lat="43.53327" lon="1.12655">
        <ele>277.62</ele>
        <time>2017-12-16T15:05:22Z</time>
      </trkpt>
      <trkpt lat="43.53325" lon="1.12631">
        <ele>278.56</ele>
        <time>2017-12-16T15:05:40Z</time>
      </trkpt>
      <trkpt lat="43.53321" lon="1.12603">
        <ele>279.37</ele>
        <time>2017-12-16T15:05:56Z</time>
      </trkpt>
      <trkpt lat="43.5332" lon="1.12599">
        <ele>279.42</ele>
        <time>2017-12-16T15:05:57Z</time>
      </trkpt>
      <trkpt lat="43.53319" lon="1.12597">
        <ele>279.46</ele>
        <time>2017-12-16T15:05:58Z</time>
      </trkpt>
      <trkpt lat="43.53314" lon="1.12577">
        <ele>279.94</ele>
        <time>2017-12-16T15:06:08Z</time>
      </trkpt>
      <trkpt lat="43.53313" lon="1.12562">
        <ele>280.05</ele>
        <time>2017-12-16T15:06:17Z</time>
      </trkpt>
      <trkpt lat="43.53312" lon="1.12561">
        <ele>280.06</ele>
        <time>2017-12-16T15:06:18Z</time>
      </trkpt>
      <trkpt lat="43.53309" lon="1.12533">
        <ele>280.6</ele>
        <time>2017-12-16T15:06:35Z</time>
      </trkpt>
      <trkpt lat="43.53303" lon="1.12509">
        <ele>280.83</ele>
        <time>2017-12-16T15:06:57Z</time>
      </trkpt>
      <trkpt lat="43.53305" lon="1.12479">
        <ele>280.73</ele>
        <time>2017-12-16T15:07:17Z</time>
      </trkpt>
      <trkpt lat="43.533" lon="1.12454">
        <ele>280.54</ele>
        <time>2017-12-16T15:07:34Z</time>
      </trkpt>
      <trkpt lat="43.533" lon="1.12446">
        <ele>280.47</ele>
        <time>2017-12-16T15:07:38Z</time>
      </trkpt>
      <trkpt lat="43.53296" lon="1.12436">
        <ele>280.41</ele>
        <time>2017-12-16T15:07:43Z</time>
      </trkpt>
      <trkpt lat="43.53295" lon="1.12434">
        <ele>280.39</ele>
        <time>2017-12-16T15:07:44Z</time>
      </trkpt>
      <trkpt lat="43.53293" lon="1.12417">
        <ele>280.21</ele>
        <time>2017-12-16T15:07:54Z</time>
      </trkpt>
      <trkpt lat="43.53293" lon="1.12393">
        <ele>280.13</ele>
        <time>2017-12-16T15:08:12Z</time>
      </trkpt>
      <trkpt lat="43.53292" lon="1.12383">
        <ele>280.13</ele>
        <time>2017-12-16T15:08:17Z</time>
      </trkpt>
      <trkpt lat="43.5329" lon="1.12326">
        <ele>279.77</ele>
        <time>2017-12-16T15:08:48Z</time>
      </trkpt>
      <trkpt lat="43.53287" lon="1.12287">
        <ele>279.53</ele>
        <time>2017-12-16T15:09:11Z</time>
      </trkpt>
      <trkpt lat="43.53287" lon="1.12269">
        <ele>279.54</ele>
        <time>2017-12-16T15:09:21Z</time>
      </trkpt>
      <trkpt lat="43.53288" lon="1.12268">
        <ele>279.55</ele>
        <time>2017-12-16T15:09:22Z</time>
      </trkpt>
      <trkpt lat="43.53288" lon="1.12266">
        <ele>279.56</ele>
        <time>2017-12-16T15:09:23Z</time>
      </trkpt>
      <trkpt lat="43.53289" lon="1.12264">
        <ele>279.58</ele>
        <time>2017-12-16T15:09:24Z</time>
      </trkpt>
      <trkpt lat="43.53289" lon="1.12263">
        <ele>279.59</ele>
        <time>2017-12-16T15:09:25Z</time>
      </trkpt>
      <trkpt lat="43.53289" lon="1.12261">
        <ele>279.59</ele>
        <time>2017-12-16T15:09:26Z</time>
      </trkpt>
      <trkpt lat="43.53288" lon="1.12248">
        <ele>279.51</ele>
        <time>2017-12-16T15:09:34Z</time>
      </trkpt>
      <trkpt lat="43.53288" lon="1.12247">
        <ele>279.5</ele>
        <time>2017-12-16T15:09:35Z</time>
      </trkpt>
      <trkpt lat="43.53288" lon="1.12246">
        <ele>279.49</ele>
        <time>2017-12-16T15:09:36Z</time>
      </trkpt>
      <trkpt lat="43.53288" lon="1.12244">
        <ele>279.48</ele>
        <time>2017-12-16T15:09:37Z</time>
      </trkpt>
      <trkpt lat="43.53288" lon="1.12243">
        <ele>279.48</ele>
        <time>2017-12-16T15:09:38Z</time>
      </trkpt>
      <trkpt lat="43.5328" lon="1.12228">
        <ele>279.23</ele>
        <time>2017-12-16T15:09:53Z</time>
      </trkpt>
      <trkpt lat="43.5328" lon="1.12214">
        <ele>279.16</ele>
        <time>2017-12-16T15:10:26Z</time>
      </trkpt>
      <trkpt lat="43.53281" lon="1.1221">
        <ele>279.13</ele>
        <time>2017-12-16T15:10:29Z</time>
      </trkpt>
      <trkpt lat="43.53279" lon="1.12195">
        <ele>279.03</ele>
        <time>2017-12-16T15:10:40Z</time>
      </trkpt>
      <trkpt lat="43.5328" lon="1.12194">
        <ele>279</ele>
        <time>2017-12-16T15:10:41Z</time>
      </trkpt>
      <trkpt lat="43.53279" lon="1.12184">
        <ele>278.94</ele>
        <time>2017-12-16T15:10:47Z</time>
      </trkpt>
      <trkpt lat="43.5328" lon="1.12176">
        <ele>278.9</ele>
        <time>2017-12-16T15:10:51Z</time>
      </trkpt>
      <trkpt lat="43.5328" lon="1.1217">
        <ele>278.86</ele>
        <time>2017-12-16T15:10:54Z</time>
      </trkpt>
      <trkpt lat="43.53276" lon="1.12158">
        <ele>278.81</ele>
        <time>2017-12-16T15:11:02Z</time>
      </trkpt>
      <trkpt lat="43.53276" lon="1.12156">
        <ele>278.81</ele>
        <time>2017-12-16T15:11:03Z</time>
      </trkpt>
      <trkpt lat="43.53277" lon="1.12145">
        <ele>278.71</ele>
        <time>2017-12-16T15:11:09Z</time>
      </trkpt>
      <trkpt lat="43.53277" lon="1.1212">
        <ele>278.53</ele>
        <time>2017-12-16T15:11:24Z</time>
      </trkpt>
      <trkpt lat="43.53275" lon="1.12104">
        <ele>278.29</ele>
        <time>2017-12-16T15:11:32Z</time>
      </trkpt>
      <trkpt lat="43.53275" lon="1.12103">
        <ele>278.27</ele>
        <time>2017-12-16T15:11:33Z</time>
      </trkpt>
      <trkpt lat="43.53275" lon="1.12098">
        <ele>278.19</ele>
        <time>2017-12-16T15:11:36Z</time>
      </trkpt>
      <trkpt lat="43.53273" lon="1.12075">
        <ele>278.04</ele>
        <time>2017-12-16T15:11:50Z</time>
      </trkpt>
      <trkpt lat="43.5327" lon="1.12048">
        <ele>277.88</ele>
        <time>2017-12-16T15:12:05Z</time>
      </trkpt>
      <trkpt lat="43.53265" lon="1.1202">
        <ele>277.6</ele>
        <time>2017-12-16T15:12:21Z</time>
      </trkpt>
      <trkpt lat="43.53262" lon="1.1201">
        <ele>277.62</ele>
        <time>2017-12-16T15:12:26Z</time>
      </trkpt>
      <trkpt lat="43.53261" lon="1.12008">
        <ele>277.62</ele>
        <time>2017-12-16T15:12:27Z</time>
      </trkpt>
      <trkpt lat="43.5326" lon="1.12007">
        <ele>277.62</ele>
        <time>2017-12-16T15:12:28Z</time>
      </trkpt>
      <trkpt lat="43.53259" lon="1.12005">
        <ele>277.62</ele>
        <time>2017-12-16T15:12:29Z</time>
      </trkpt>
      <trkpt lat="43.53259" lon="1.12004">
        <ele>277.62</ele>
        <time>2017-12-16T15:12:30Z</time>
      </trkpt>
      <trkpt lat="43.53259" lon="1.12002">
        <ele>277.61</ele>
        <time>2017-12-16T15:12:31Z</time>
      </trkpt>
      <trkpt lat="43.53259" lon="1.12">
        <ele>277.61</ele>
        <time>2017-12-16T15:12:32Z</time>
      </trkpt>
      <trkpt lat="43.53259" lon="1.11998">
        <ele>277.61</ele>
        <time>2017-12-16T15:12:33Z</time>
      </trkpt>
      <trkpt lat="43.53258" lon="1.11992">
        <ele>277.63</ele>
        <time>2017-12-16T15:12:37Z</time>
      </trkpt>
      <trkpt lat="43.53257" lon="1.11987">
        <ele>277.63</ele>
        <time>2017-12-16T15:12:40Z</time>
      </trkpt>
      <trkpt lat="43.53257" lon="1.11985">
        <ele>277.64</ele>
        <time>2017-12-16T15:12:41Z</time>
      </trkpt>
      <trkpt lat="43.53256" lon="1.11983">
        <ele>277.67</ele>
        <time>2017-12-16T15:12:42Z</time>
      </trkpt>
      <trkpt lat="43.53256" lon="1.11981">
        <ele>277.7</ele>
        <time>2017-12-16T15:12:43Z</time>
      </trkpt>
      <trkpt lat="43.53255" lon="1.11979">
        <ele>277.7</ele>
        <time>2017-12-16T15:12:44Z</time>
      </trkpt>
      <trkpt lat="43.53255" lon="1.11978">
        <ele>277.7</ele>
        <time>2017-12-16T15:12:45Z</time>
      </trkpt>
      <trkpt lat="43.53255" lon="1.11976">
        <ele>277.7</ele>
        <time>2017-12-16T15:12:46Z</time>
      </trkpt>
      <trkpt lat="43.53254" lon="1.11974">
        <ele>277.7</ele>
        <time>2017-12-16T15:12:47Z</time>
      </trkpt>
      <trkpt lat="43.5325" lon="1.11954">
        <ele>277.73</ele>
        <time>2017-12-16T15:12:59Z</time>
      </trkpt>
      <trkpt lat="43.53249" lon="1.11952">
        <ele>277.72</ele>
        <time>2017-12-16T15:13:00Z</time>
      </trkpt>
      <trkpt lat="43.53249" lon="1.1195">
        <ele>277.71</ele>
        <time>2017-12-16T15:13:01Z</time>
      </trkpt>
      <trkpt lat="43.53249" lon="1.11949">
        <ele>277.74</ele>
        <time>2017-12-16T15:13:02Z</time>
      </trkpt>
      <trkpt lat="43.53249" lon="1.11947">
        <ele>277.75</ele>
        <time>2017-12-16T15:13:03Z</time>
      </trkpt>
      <trkpt lat="43.53243" lon="1.11921">
        <ele>277.86</ele>
        <time>2017-12-16T15:13:19Z</time>
      </trkpt>
      <trkpt lat="43.5324" lon="1.11908">
        <ele>277.93</ele>
        <time>2017-12-16T15:13:26Z</time>
      </trkpt>
      <trkpt lat="43.5324" lon="1.11907">
        <ele>277.95</ele>
        <time>2017-12-16T15:13:27Z</time>
      </trkpt>
      <trkpt lat="43.53235" lon="1.11882">
        <ele>278.11</ele>
        <time>2017-12-16T15:13:44Z</time>
      </trkpt>
      <trkpt lat="43.53232" lon="1.11859">
        <ele>278.17</ele>
        <time>2017-12-16T15:13:58Z</time>
      </trkpt>
      <trkpt lat="43.53228" lon="1.11847">
        <ele>278.16</ele>
        <time>2017-12-16T15:14:05Z</time>
      </trkpt>
      <trkpt lat="43.53221" lon="1.11824">
        <ele>277.97</ele>
        <time>2017-12-16T15:14:19Z</time>
      </trkpt>
      <trkpt lat="43.5322" lon="1.11818">
        <ele>277.84</ele>
        <time>2017-12-16T15:14:23Z</time>
      </trkpt>
      <trkpt lat="43.53212" lon="1.11796">
        <ele>277.67</ele>
        <time>2017-12-16T15:14:37Z</time>
      </trkpt>
      <trkpt lat="43.53204" lon="1.11778">
        <ele>277.74</ele>
        <time>2017-12-16T15:14:49Z</time>
      </trkpt>
      <trkpt lat="43.53194" lon="1.11761">
        <ele>277.72</ele>
        <time>2017-12-16T15:15:02Z</time>
      </trkpt>
      <trkpt lat="43.5318" lon="1.11745">
        <ele>277.77</ele>
        <time>2017-12-16T15:15:16Z</time>
      </trkpt>
      <trkpt lat="43.53169" lon="1.11727">
        <ele>277.59</ele>
        <time>2017-12-16T15:15:30Z</time>
      </trkpt>
      <trkpt lat="43.53154" lon="1.11701">
        <ele>277.79</ele>
        <time>2017-12-16T15:15:47Z</time>
      </trkpt>
      <trkpt lat="43.53144" lon="1.11689">
        <ele>277.85</ele>
        <time>2017-12-16T15:15:59Z</time>
      </trkpt>
      <trkpt lat="43.53142" lon="1.11684">
        <ele>277.87</ele>
        <time>2017-12-16T15:16:03Z</time>
      </trkpt>
      <trkpt lat="43.53137" lon="1.11678">
        <ele>277.94</ele>
        <time>2017-12-16T15:16:08Z</time>
      </trkpt>
      <trkpt lat="43.53136" lon="1.11677">
        <ele>277.96</ele>
        <time>2017-12-16T15:16:09Z</time>
      </trkpt>
      <trkpt lat="43.53122" lon="1.11655">
        <ele>278.34</ele>
        <time>2017-12-16T15:16:24Z</time>
      </trkpt>
      <trkpt lat="43.5312" lon="1.11652">
        <ele>278.39</ele>
        <time>2017-12-16T15:16:26Z</time>
      </trkpt>
      <trkpt lat="43.53119" lon="1.1165">
        <ele>278.45</ele>
        <time>2017-12-16T15:16:27Z</time>
      </trkpt>
      <trkpt lat="43.53117" lon="1.11649">
        <ele>278.48</ele>
        <time>2017-12-16T15:16:28Z</time>
      </trkpt>
      <trkpt lat="43.53116" lon="1.11648">
        <ele>278.58</ele>
        <time>2017-12-16T15:16:29Z</time>
      </trkpt>
      <trkpt lat="43.53115" lon="1.11646">
        <ele>278.67</ele>
        <time>2017-12-16T15:16:30Z</time>
      </trkpt>
      <trkpt lat="43.531" lon="1.11624">
        <ele>279.25</ele>
        <time>2017-12-16T15:16:47Z</time>
      </trkpt>
      <trkpt lat="43.53088" lon="1.1161">
        <ele>279.66</ele>
        <time>2017-12-16T15:17:01Z</time>
      </trkpt>
      <trkpt lat="43.53074" lon="1.11582">
        <ele>279.99</ele>
        <time>2017-12-16T15:17:19Z</time>
      </trkpt>
      <trkpt lat="43.53074" lon="1.11581">
        <ele>280.04</ele>
        <time>2017-12-16T15:17:20Z</time>
      </trkpt>
      <trkpt lat="43.53073" lon="1.11579">
        <ele>280.07</ele>
        <time>2017-12-16T15:17:21Z</time>
      </trkpt>
      <trkpt lat="43.53073" lon="1.11577">
        <ele>280.07</ele>
        <time>2017-12-16T15:17:22Z</time>
      </trkpt>
      <trkpt lat="43.53073" lon="1.11575">
        <ele>280.08</ele>
        <time>2017-12-16T15:17:23Z</time>
      </trkpt>
      <trkpt lat="43.53072" lon="1.11574">
        <ele>280.08</ele>
        <time>2017-12-16T15:17:24Z</time>
      </trkpt>
      <trkpt lat="43.5307" lon="1.11568">
        <ele>280.09</ele>
        <time>2017-12-16T15:17:28Z</time>
      </trkpt>
      <trkpt lat="43.53069" lon="1.11566">
        <ele>280.09</ele>
        <time>2017-12-16T15:17:29Z</time>
      </trkpt>
      <trkpt lat="43.53069" lon="1.11565">
        <ele>280.09</ele>
        <time>2017-12-16T15:17:30Z</time>
      </trkpt>
      <trkpt lat="43.53065" lon="1.11558">
        <ele>280.06</ele>
        <time>2017-12-16T15:17:35Z</time>
      </trkpt>
      <trkpt lat="43.53065" lon="1.11557">
        <ele>280.04</ele>
        <time>2017-12-16T15:17:36Z</time>
      </trkpt>
      <trkpt lat="43.53056" lon="1.11538">
        <ele>280.07</ele>
        <time>2017-12-16T15:17:51Z</time>
      </trkpt>
      <trkpt lat="43.53055" lon="1.11526">
        <ele>280.55</ele>
        <time>2017-12-16T15:18:06Z</time>
      </trkpt>
      <trkpt lat="43.53055" lon="1.11527">
        <ele>280.51</ele>
        <time>2017-12-16T15:18:26Z</time>
      </trkpt>
      <trkpt lat="43.53049" lon="1.11517">
        <ele>280.51</ele>
        <time>2017-12-16T15:18:41Z</time>
      </trkpt>
      <trkpt lat="43.53041" lon="1.11497">
        <ele>280.38</ele>
        <time>2017-12-16T15:18:53Z</time>
      </trkpt>
      <trkpt lat="43.53034" lon="1.11477">
        <ele>280.27</ele>
        <time>2017-12-16T15:19:06Z</time>
      </trkpt>
      <trkpt lat="43.53033" lon="1.11475">
        <ele>280.27</ele>
        <time>2017-12-16T15:19:07Z</time>
      </trkpt>
      <trkpt lat="43.53033" lon="1.11474">
        <ele>280.3</ele>
        <time>2017-12-16T15:19:08Z</time>
      </trkpt>
      <trkpt lat="43.53032" lon="1.11472">
        <ele>280.32</ele>
        <time>2017-12-16T15:19:09Z</time>
      </trkpt>
      <trkpt lat="43.53031" lon="1.1147">
        <ele>280.33</ele>
        <time>2017-12-16T15:19:10Z</time>
      </trkpt>
      <trkpt lat="43.53024" lon="1.11455">
        <ele>280.29</ele>
        <time>2017-12-16T15:19:22Z</time>
      </trkpt>
      <trkpt lat="43.5302" lon="1.11443">
        <ele>280.39</ele>
        <time>2017-12-16T15:19:31Z</time>
      </trkpt>
      <trkpt lat="43.53019" lon="1.11442">
        <ele>280.4</ele>
        <time>2017-12-16T15:19:32Z</time>
      </trkpt>
      <trkpt lat="43.53018" lon="1.11435">
        <ele>280.5</ele>
        <time>2017-12-16T15:19:37Z</time>
      </trkpt>
      <trkpt lat="43.53018" lon="1.11433">
        <ele>280.52</ele>
        <time>2017-12-16T15:19:38Z</time>
      </trkpt>
      <trkpt lat="43.53007" lon="1.11412">
        <ele>280.96</ele>
        <time>2017-12-16T15:19:51Z</time>
      </trkpt>
      <trkpt lat="43.52998" lon="1.11396">
        <ele>280.99</ele>
        <time>2017-12-16T15:20:06Z</time>
      </trkpt>
      <trkpt lat="43.52993" lon="1.11381">
        <ele>281.52</ele>
        <time>2017-12-16T15:20:27Z</time>
      </trkpt>
      <trkpt lat="43.52989" lon="1.11374">
        <ele>281.57</ele>
        <time>2017-12-16T15:21:16Z</time>
      </trkpt>
      <trkpt lat="43.52989" lon="1.11376">
        <ele>281.56</ele>
        <time>2017-12-16T15:21:45Z</time>
      </trkpt>
      <trkpt lat="43.52995" lon="1.11367">
        <ele>281.31</ele>
        <time>2017-12-16T15:22:31Z</time>
      </trkpt>
      <trkpt lat="43.52977" lon="1.11337">
        <ele>281.6</ele>
        <time>2017-12-16T15:22:54Z</time>
      </trkpt>
      <trkpt lat="43.52967" lon="1.11306">
        <ele>281.8</ele>
        <time>2017-12-16T15:23:15Z</time>
      </trkpt>
      <trkpt lat="43.52947" lon="1.11273">
        <ele>282.58</ele>
        <time>2017-12-16T15:23:35Z</time>
      </trkpt>
      <trkpt lat="43.5294" lon="1.11261">
        <ele>283.11</ele>
        <time>2017-12-16T15:23:44Z</time>
      </trkpt>
      <trkpt lat="43.52939" lon="1.11261">
        <ele>283.14</ele>
        <time>2017-12-16T15:23:45Z</time>
      </trkpt>
      <trkpt lat="43.52937" lon="1.11255">
        <ele>283.97</ele>
        <time>2017-12-16T15:23:58Z</time>
      </trkpt>
      <trkpt lat="43.52928" lon="1.11234">
        <ele>283.79</ele>
        <time>2017-12-16T15:24:29Z</time>
      </trkpt>
      <trkpt lat="43.52927" lon="1.11228">
        <ele>283.76</ele>
        <time>2017-12-16T15:24:36Z</time>
      </trkpt>
      <trkpt lat="43.52925" lon="1.11222">
        <ele>283.76</ele>
        <time>2017-12-16T15:24:40Z</time>
      </trkpt>
      <trkpt lat="43.5292" lon="1.11208">
        <ele>283.8</ele>
        <time>2017-12-16T15:24:50Z</time>
      </trkpt>
      <trkpt lat="43.5291" lon="1.11187">
        <ele>284.2</ele>
        <time>2017-12-16T15:25:05Z</time>
      </trkpt>
      <trkpt lat="43.52908" lon="1.11174">
        <ele>284.26</ele>
        <time>2017-12-16T15:25:15Z</time>
      </trkpt>
      <trkpt lat="43.52907" lon="1.11173">
        <ele>284.26</ele>
        <time>2017-12-16T15:25:16Z</time>
      </trkpt>
      <trkpt lat="43.52902" lon="1.11157">
        <ele>284.33</ele>
        <time>2017-12-16T15:25:27Z</time>
      </trkpt>
      <trkpt lat="43.52901" lon="1.11154">
        <ele>284.34</ele>
        <time>2017-12-16T15:25:28Z</time>
      </trkpt>
      <trkpt lat="43.52901" lon="1.11153">
        <ele>284.34</ele>
        <time>2017-12-16T15:25:29Z</time>
      </trkpt>
      <trkpt lat="43.52899" lon="1.11147">
        <ele>284.33</ele>
        <time>2017-12-16T15:25:33Z</time>
      </trkpt>
      <trkpt lat="43.52899" lon="1.11146">
        <ele>284.32</ele>
        <time>2017-12-16T15:25:34Z</time>
      </trkpt>
      <trkpt lat="43.52891" lon="1.11123">
        <ele>284.38</ele>
        <time>2017-12-16T15:25:53Z</time>
      </trkpt>
      <trkpt lat="43.5288" lon="1.11096">
        <ele>284.14</ele>
        <time>2017-12-16T15:26:12Z</time>
      </trkpt>
      <trkpt lat="43.52868" lon="1.1106">
        <ele>284.21</ele>
        <time>2017-12-16T15:26:37Z</time>
      </trkpt>
      <trkpt lat="43.52854" lon="1.11018">
        <ele>284.31</ele>
        <time>2017-12-16T15:27:03Z</time>
      </trkpt>
      <trkpt lat="43.52843" lon="1.10993">
        <ele>284.41</ele>
        <time>2017-12-16T15:27:19Z</time>
      </trkpt>
      <trkpt lat="43.52843" lon="1.10992">
        <ele>284.42</ele>
        <time>2017-12-16T15:27:20Z</time>
      </trkpt>
      <trkpt lat="43.52835" lon="1.10968">
        <ele>284.69</ele>
        <time>2017-12-16T15:27:38Z</time>
      </trkpt>
      <trkpt lat="43.52815" lon="1.10947">
        <ele>284.81</ele>
        <time>2017-12-16T15:27:57Z</time>
      </trkpt>
      <trkpt lat="43.52802" lon="1.10947">
        <ele>284.78</ele>
        <time>2017-12-16T15:28:13Z</time>
      </trkpt>
      <trkpt lat="43.52801" lon="1.10948">
        <ele>284.77</ele>
        <time>2017-12-16T15:28:14Z</time>
      </trkpt>
      <trkpt lat="43.528" lon="1.10949">
        <ele>284.75</ele>
        <time>2017-12-16T15:28:15Z</time>
      </trkpt>
      <trkpt lat="43.52793" lon="1.10952">
        <ele>284.49</ele>
        <time>2017-12-16T15:28:25Z</time>
      </trkpt>
      <trkpt lat="43.52792" lon="1.10953">
        <ele>284.46</ele>
        <time>2017-12-16T15:28:26Z</time>
      </trkpt>
      <trkpt lat="43.52791" lon="1.10954">
        <ele>284.39</ele>
        <time>2017-12-16T15:28:27Z</time>
      </trkpt>
      <trkpt lat="43.5279" lon="1.10954">
        <ele>284.35</ele>
        <time>2017-12-16T15:28:28Z</time>
      </trkpt>
      <trkpt lat="43.52788" lon="1.10955">
        <ele>284.32</ele>
        <time>2017-12-16T15:28:29Z</time>
      </trkpt>
      <trkpt lat="43.52787" lon="1.10955">
        <ele>284.3</ele>
        <time>2017-12-16T15:28:30Z</time>
      </trkpt>
      <trkpt lat="43.52786" lon="1.10955">
        <ele>284.24</ele>
        <time>2017-12-16T15:28:31Z</time>
      </trkpt>
      <trkpt lat="43.52785" lon="1.10957">
        <ele>284.2</ele>
        <time>2017-12-16T15:28:32Z</time>
      </trkpt>
      <trkpt lat="43.52784" lon="1.10958">
        <ele>284.1</ele>
        <time>2017-12-16T15:28:33Z</time>
      </trkpt>
      <trkpt lat="43.52782" lon="1.10958">
        <ele>284.03</ele>
        <time>2017-12-16T15:28:34Z</time>
      </trkpt>
      <trkpt lat="43.52781" lon="1.10958">
        <ele>284</ele>
        <time>2017-12-16T15:28:35Z</time>
      </trkpt>
      <trkpt lat="43.52775" lon="1.10961">
        <ele>283.72</ele>
        <time>2017-12-16T15:28:44Z</time>
      </trkpt>
      <trkpt lat="43.52749" lon="1.10966">
        <ele>283.6</ele>
        <time>2017-12-16T15:29:04Z</time>
      </trkpt>
      <trkpt lat="43.52726" lon="1.1097">
        <ele>283.33</ele>
        <time>2017-12-16T15:29:21Z</time>
      </trkpt>
      <trkpt lat="43.52704" lon="1.10978">
        <ele>283.24</ele>
        <time>2017-12-16T15:29:39Z</time>
      </trkpt>
      <trkpt lat="43.52688" lon="1.10983">
        <ele>283.21</ele>
        <time>2017-12-16T15:29:50Z</time>
      </trkpt>
      <trkpt lat="43.5267" lon="1.1099">
        <ele>283.14</ele>
        <time>2017-12-16T15:30:06Z</time>
      </trkpt>
      <trkpt lat="43.52663" lon="1.10991">
        <ele>283.04</ele>
        <time>2017-12-16T15:30:11Z</time>
      </trkpt>
      <trkpt lat="43.52661" lon="1.10991">
        <ele>283.01</ele>
        <time>2017-12-16T15:30:12Z</time>
      </trkpt>
      <trkpt lat="43.5266" lon="1.10991">
        <ele>282.99</ele>
        <time>2017-12-16T15:30:13Z</time>
      </trkpt>
      <trkpt lat="43.52658" lon="1.10991">
        <ele>282.98</ele>
        <time>2017-12-16T15:30:14Z</time>
      </trkpt>
      <trkpt lat="43.52657" lon="1.10992">
        <ele>282.97</ele>
        <time>2017-12-16T15:30:15Z</time>
      </trkpt>
      <trkpt lat="43.52651" lon="1.10999">
        <ele>282.94</ele>
        <time>2017-12-16T15:30:30Z</time>
      </trkpt>
      <trkpt lat="43.52636" lon="1.11005">
        <ele>282.4</ele>
        <time>2017-12-16T15:30:51Z</time>
      </trkpt>
      <trkpt lat="43.52631" lon="1.11006">
        <ele>282.38</ele>
        <time>2017-12-16T15:30:55Z</time>
      </trkpt>
      <trkpt lat="43.52629" lon="1.11006">
        <ele>282.38</ele>
        <time>2017-12-16T15:30:56Z</time>
      </trkpt>
      <trkpt lat="43.52628" lon="1.11007">
        <ele>282.38</ele>
        <time>2017-12-16T15:30:57Z</time>
      </trkpt>
      <trkpt lat="43.52614" lon="1.11022">
        <ele>283.05</ele>
        <time>2017-12-16T15:31:14Z</time>
      </trkpt>
      <trkpt lat="43.52613" lon="1.11027">
        <ele>283.1</ele>
        <time>2017-12-16T15:31:17Z</time>
      </trkpt>
      <trkpt lat="43.52607" lon="1.1104">
        <ele>283.04</ele>
        <time>2017-12-16T15:31:25Z</time>
      </trkpt>
      <trkpt lat="43.52599" lon="1.11059">
        <ele>282.85</ele>
        <time>2017-12-16T15:31:41Z</time>
      </trkpt>
      <trkpt lat="43.52583" lon="1.11073">
        <ele>282.8</ele>
        <time>2017-12-16T15:31:59Z</time>
      </trkpt>
      <trkpt lat="43.52569" lon="1.11108">
        <ele>282.56</ele>
        <time>2017-12-16T15:32:22Z</time>
      </trkpt>
      <trkpt lat="43.52548" lon="1.11146">
        <ele>282.05</ele>
        <time>2017-12-16T15:32:48Z</time>
      </trkpt>
      <trkpt lat="43.52531" lon="1.11175">
        <ele>281.57</ele>
        <time>2017-12-16T15:33:12Z</time>
      </trkpt>
      <trkpt lat="43.52509" lon="1.11215">
        <ele>279.71</ele>
        <time>2017-12-16T15:33:40Z</time>
      </trkpt>
      <trkpt lat="43.52503" lon="1.1123">
        <ele>278.28</ele>
        <time>2017-12-16T15:33:55Z</time>
      </trkpt>
      <trkpt lat="43.52491" lon="1.11234">
        <ele>277.35</ele>
        <time>2017-12-16T15:34:07Z</time>
      </trkpt>
      <trkpt lat="43.52465" lon="1.11242">
        <ele>273.99</ele>
        <time>2017-12-16T15:34:29Z</time>
      </trkpt>
      <trkpt lat="43.52451" lon="1.11244">
        <ele>270.87</ele>
        <time>2017-12-16T15:34:45Z</time>
      </trkpt>
      <trkpt lat="43.52431" lon="1.11247">
        <ele>267.84</ele>
        <time>2017-12-16T15:35:02Z</time>
      </trkpt>
      <trkpt lat="43.52408" lon="1.11252">
        <ele>264.75</ele>
        <time>2017-12-16T15:35:22Z</time>
      </trkpt>
      <trkpt lat="43.52405" lon="1.11262">
        <ele>263.02</ele>
        <time>2017-12-16T15:35:33Z</time>
      </trkpt>
      <trkpt lat="43.52401" lon="1.11302">
        <ele>261.37</ele>
        <time>2017-12-16T15:35:58Z</time>
      </trkpt>
      <trkpt lat="43.5242" lon="1.1134">
        <ele>261.32</ele>
        <time>2017-12-16T15:36:26Z</time>
      </trkpt>
      <trkpt lat="43.52427" lon="1.1135">
        <ele>261.93</ele>
        <time>2017-12-16T15:36:53Z</time>
      </trkpt>
      <trkpt lat="43.52428" lon="1.11364">
        <ele>261.7</ele>
        <time>2017-12-16T15:37:34Z</time>
      </trkpt>
      <trkpt lat="43.52432" lon="1.11373">
        <ele>261.31</ele>
        <time>2017-12-16T15:37:41Z</time>
      </trkpt>
      <trkpt lat="43.52436" lon="1.11379">
        <ele>261.28</ele>
        <time>2017-12-16T15:37:46Z</time>
      </trkpt>
      <trkpt lat="43.52437" lon="1.11384">
        <ele>261.36</ele>
        <time>2017-12-16T15:37:49Z</time>
      </trkpt>
      <trkpt lat="43.52439" lon="1.11392">
        <ele>261.48</ele>
        <time>2017-12-16T15:37:54Z</time>
      </trkpt>
      <trkpt lat="43.5244" lon="1.11395">
        <ele>261.56</ele>
        <time>2017-12-16T15:37:56Z</time>
      </trkpt>
      <trkpt lat="43.52441" lon="1.1141">
        <ele>261.8</ele>
        <time>2017-12-16T15:38:06Z</time>
      </trkpt>
      <trkpt lat="43.52439" lon="1.11432">
        <ele>260.77</ele>
        <time>2017-12-16T15:38:20Z</time>
      </trkpt>
      <trkpt lat="43.52446" lon="1.11451">
        <ele>257.67</ele>
        <time>2017-12-16T15:38:37Z</time>
      </trkpt>
      <trkpt lat="43.52445" lon="1.11458">
        <ele>255.47</ele>
        <time>2017-12-16T15:38:55Z</time>
      </trkpt>
      <trkpt lat="43.52445" lon="1.11465">
        <ele>254.82</ele>
        <time>2017-12-16T15:39:26Z</time>
      </trkpt>
      <trkpt lat="43.52446" lon="1.11475">
        <ele>252.08</ele>
        <time>2017-12-16T15:39:47Z</time>
      </trkpt>
      <trkpt lat="43.52449" lon="1.11484">
        <ele>249.12</ele>
        <time>2017-12-16T15:40:14Z</time>
      </trkpt>
      <trkpt lat="43.52458" lon="1.11496">
        <ele>247.23</ele>
        <time>2017-12-16T15:40:38Z</time>
      </trkpt>
      <trkpt lat="43.52462" lon="1.11504">
        <ele>246.2</ele>
        <time>2017-12-16T15:40:45Z</time>
      </trkpt>
      <trkpt lat="43.52469" lon="1.11534">
        <ele>242.95</ele>
        <time>2017-12-16T15:41:09Z</time>
      </trkpt>
      <trkpt lat="43.52459" lon="1.11569">
        <ele>240</ele>
        <time>2017-12-16T15:41:38Z</time>
      </trkpt>
      <trkpt lat="43.52458" lon="1.11571">
        <ele>239.94</ele>
        <time>2017-12-16T15:41:39Z</time>
      </trkpt>
      <trkpt lat="43.52449" lon="1.11587">
        <ele>237.55</ele>
        <time>2017-12-16T15:41:59Z</time>
      </trkpt>
      <trkpt lat="43.52441" lon="1.11631">
        <ele>235.61</ele>
        <time>2017-12-16T15:42:25Z</time>
      </trkpt>
      <trkpt lat="43.52441" lon="1.1167">
        <ele>234.26</ele>
        <time>2017-12-16T15:42:52Z</time>
      </trkpt>
      <trkpt lat="43.52424" lon="1.11681">
        <ele>232.86</ele>
        <time>2017-12-16T15:43:05Z</time>
      </trkpt>
      <trkpt lat="43.52393" lon="1.11688">
        <ele>231.1</ele>
        <time>2017-12-16T15:43:28Z</time>
      </trkpt>
      <trkpt lat="43.52385" lon="1.11693">
        <ele>230.75</ele>
        <time>2017-12-16T15:43:34Z</time>
      </trkpt>
      <trkpt lat="43.52373" lon="1.1171">
        <ele>228.9</ele>
        <time>2017-12-16T15:43:55Z</time>
      </trkpt>
      <trkpt lat="43.52367" lon="1.11713">
        <ele>228.12</ele>
        <time>2017-12-16T15:44:04Z</time>
      </trkpt>
      <trkpt lat="43.52352" lon="1.11739">
        <ele>226.78</ele>
        <time>2017-12-16T15:44:26Z</time>
      </trkpt>
      <trkpt lat="43.52354" lon="1.11758">
        <ele>226.53</ele>
        <time>2017-12-16T15:44:38Z</time>
      </trkpt>
      <trkpt lat="43.52355" lon="1.1176">
        <ele>226.52</ele>
        <time>2017-12-16T15:44:40Z</time>
      </trkpt>
      <trkpt lat="43.52358" lon="1.11766">
        <ele>226.36</ele>
        <time>2017-12-16T15:44:49Z</time>
      </trkpt>
      <trkpt lat="43.5236" lon="1.11766">
        <ele>226.25</ele>
        <time>2017-12-16T15:44:55Z</time>
      </trkpt>
      <trkpt lat="43.52352" lon="1.11773">
        <ele>226.2</ele>
        <time>2017-12-16T15:45:11Z</time>
      </trkpt>
      <trkpt lat="43.52361" lon="1.11785">
        <ele>226.25</ele>
        <time>2017-12-16T15:45:33Z</time>
      </trkpt>
      <trkpt lat="43.52373" lon="1.11805">
        <ele>226.44</ele>
        <time>2017-12-16T15:45:50Z</time>
      </trkpt>
      <trkpt lat="43.52383" lon="1.1182">
        <ele>226.61</ele>
        <time>2017-12-16T15:46:01Z</time>
      </trkpt>
      <trkpt lat="43.52394" lon="1.11826">
        <ele>226.86</ele>
        <time>2017-12-16T15:46:18Z</time>
      </trkpt>
      <trkpt lat="43.52394" lon="1.11826">
        <ele>226.88</ele>
        <time>2017-12-16T15:46:20Z</time>
      </trkpt>
      <trkpt lat="43.52388" lon="1.11835">
        <ele>226.85</ele>
        <time>2017-12-16T15:46:36Z</time>
      </trkpt>
      <trkpt lat="43.52359" lon="1.11863">
        <ele>224</ele>
        <time>2017-12-16T15:47:04Z</time>
      </trkpt>
      <trkpt lat="43.52343" lon="1.11885">
        <ele>221.93</ele>
        <time>2017-12-16T15:47:26Z</time>
      </trkpt>
      <trkpt lat="43.52327" lon="1.11896">
        <ele>221.22</ele>
        <time>2017-12-16T15:47:43Z</time>
      </trkpt>
      <trkpt lat="43.52306" lon="1.11919">
        <ele>220.98</ele>
        <time>2017-12-16T15:48:05Z</time>
      </trkpt>
      <trkpt lat="43.52291" lon="1.11921">
        <ele>220.95</ele>
        <time>2017-12-16T15:48:29Z</time>
      </trkpt>
      <trkpt lat="43.52283" lon="1.11919">
        <ele>220.66</ele>
        <time>2017-12-16T15:48:48Z</time>
      </trkpt>
      <trkpt lat="43.52274" lon="1.11912">
        <ele>220.66</ele>
        <time>2017-12-16T15:49:09Z</time>
      </trkpt>
      <trkpt lat="43.52273" lon="1.11911">
        <ele>220.66</ele>
        <time>2017-12-16T15:49:11Z</time>
      </trkpt>
      <trkpt lat="43.52251" lon="1.11903">
        <ele>220.33</ele>
        <time>2017-12-16T15:49:31Z</time>
      </trkpt>
      <trkpt lat="43.52241" lon="1.11916">
        <ele>220.25</ele>
        <time>2017-12-16T15:49:51Z</time>
      </trkpt>
      <trkpt lat="43.52247" lon="1.11941">
        <ele>220.32</ele>
        <time>2017-12-16T15:50:11Z</time>
      </trkpt>
      <trkpt lat="43.52254" lon="1.1197">
        <ele>220.54</ele>
        <time>2017-12-16T15:50:29Z</time>
      </trkpt>
      <trkpt lat="43.52253" lon="1.11997">
        <ele>221.07</ele>
        <time>2017-12-16T15:50:50Z</time>
      </trkpt>
      <trkpt lat="43.52246" lon="1.12001">
        <ele>221.5</ele>
        <time>2017-12-16T15:51:04Z</time>
      </trkpt>
      <trkpt lat="43.52244" lon="1.12003">
        <ele>221.51</ele>
        <time>2017-12-16T15:51:06Z</time>
      </trkpt>
      <trkpt lat="43.5224" lon="1.12011">
        <ele>221.67</ele>
        <time>2017-12-16T15:51:15Z</time>
      </trkpt>
      <trkpt lat="43.52223" lon="1.1202">
        <ele>223.26</ele>
        <time>2017-12-16T15:51:33Z</time>
      </trkpt>
      <trkpt lat="43.52211" lon="1.12029">
        <ele>224.27</ele>
        <time>2017-12-16T15:51:45Z</time>
      </trkpt>
      <trkpt lat="43.52208" lon="1.12032">
        <ele>224.44</ele>
        <time>2017-12-16T15:51:48Z</time>
      </trkpt>
      <trkpt lat="43.5219" lon="1.12044">
        <ele>225.99</ele>
        <time>2017-12-16T15:52:06Z</time>
      </trkpt>
      <trkpt lat="43.52172" lon="1.12058">
        <ele>227.42</ele>
        <time>2017-12-16T15:52:24Z</time>
      </trkpt>
      <trkpt lat="43.52161" lon="1.12066">
        <ele>228.27</ele>
        <time>2017-12-16T15:52:37Z</time>
      </trkpt>
      <trkpt lat="43.52149" lon="1.12086">
        <ele>229.88</ele>
        <time>2017-12-16T15:52:55Z</time>
      </trkpt>
      <trkpt lat="43.52137" lon="1.12107">
        <ele>231.92</ele>
        <time>2017-12-16T15:53:12Z</time>
      </trkpt>
      <trkpt lat="43.52124" lon="1.12126">
        <ele>233.78</ele>
        <time>2017-12-16T15:53:26Z</time>
      </trkpt>
      <trkpt lat="43.52108" lon="1.12136">
        <ele>235.86</ele>
        <time>2017-12-16T15:53:43Z</time>
      </trkpt>
      <trkpt lat="43.52107" lon="1.12137">
        <ele>236.38</ele>
        <time>2017-12-16T15:53:46Z</time>
      </trkpt>
      <trkpt lat="43.52099" lon="1.12142">
        <ele>237.74</ele>
        <time>2017-12-16T15:53:58Z</time>
      </trkpt>
      <trkpt lat="43.52091" lon="1.1215">
        <ele>238.35</ele>
        <time>2017-12-16T15:54:06Z</time>
      </trkpt>
      <trkpt lat="43.5207" lon="1.12176">
        <ele>241.37</ele>
        <time>2017-12-16T15:54:29Z</time>
      </trkpt>
      <trkpt lat="43.52064" lon="1.12188">
        <ele>242.44</ele>
        <time>2017-12-16T15:54:37Z</time>
      </trkpt>
      <trkpt lat="43.52055" lon="1.12211">
        <ele>245.75</ele>
        <time>2017-12-16T15:54:54Z</time>
      </trkpt>
      <trkpt lat="43.52047" lon="1.12235">
        <ele>248.76</ele>
        <time>2017-12-16T15:55:13Z</time>
      </trkpt>
      <trkpt lat="43.52036" lon="1.12252">
        <ele>251.82</ele>
        <time>2017-12-16T15:55:29Z</time>
      </trkpt>
      <trkpt lat="43.52028" lon="1.12265">
        <ele>255.05</ele>
        <time>2017-12-16T15:55:44Z</time>
      </trkpt>
      <trkpt lat="43.52016" lon="1.12283">
        <ele>258.1</ele>
        <time>2017-12-16T15:56:02Z</time>
      </trkpt>
      <trkpt lat="43.52005" lon="1.12296">
        <ele>261.26</ele>
        <time>2017-12-16T15:56:18Z</time>
      </trkpt>
      <trkpt lat="43.52004" lon="1.12297">
        <ele>261.45</ele>
        <time>2017-12-16T15:56:20Z</time>
      </trkpt>
      <trkpt lat="43.52002" lon="1.12296">
        <ele>262.23</ele>
        <time>2017-12-16T15:57:06Z</time>
      </trkpt>
      <trkpt lat="43.51974" lon="1.12321">
        <ele>264.83</ele>
        <time>2017-12-16T15:57:30Z</time>
      </trkpt>
      <trkpt lat="43.51969" lon="1.12326">
        <ele>265.68</ele>
        <time>2017-12-16T15:57:34Z</time>
      </trkpt>
      <trkpt lat="43.51951" lon="1.12343">
        <ele>269.03</ele>
        <time>2017-12-16T15:57:50Z</time>
      </trkpt>
      <trkpt lat="43.51942" lon="1.12351">
        <ele>271.22</ele>
        <time>2017-12-16T15:58:01Z</time>
      </trkpt>
      <trkpt lat="43.5194" lon="1.12353">
        <ele>271.88</ele>
        <time>2017-12-16T15:58:04Z</time>
      </trkpt>
      <trkpt lat="43.51936" lon="1.12358">
        <ele>272.67</ele>
        <time>2017-12-16T15:58:09Z</time>
      </trkpt>
      <trkpt lat="43.51923" lon="1.12374">
        <ele>274.8</ele>
        <time>2017-12-16T15:58:23Z</time>
      </trkpt>
      <trkpt lat="43.51914" lon="1.12386">
        <ele>276.25</ele>
        <time>2017-12-16T15:58:39Z</time>
      </trkpt>
      <trkpt lat="43.51909" lon="1.12394">
        <ele>277.45</ele>
        <time>2017-12-16T15:58:55Z</time>
      </trkpt>
      <trkpt lat="43.51911" lon="1.12397">
        <ele>277.83</ele>
        <time>2017-12-16T15:59:12Z</time>
      </trkpt>
      <trkpt lat="43.51915" lon="1.12404">
        <ele>277.81</ele>
        <time>2017-12-16T15:59:17Z</time>
      </trkpt>
      <trkpt lat="43.51916" lon="1.12408">
        <ele>277.81</ele>
        <time>2017-12-16T15:59:20Z</time>
      </trkpt>
      <trkpt lat="43.51924" lon="1.12434">
        <ele>278.45</ele>
        <time>2017-12-16T15:59:37Z</time>
      </trkpt>
      <trkpt lat="43.51924" lon="1.12436">
        <ele>278.54</ele>
        <time>2017-12-16T15:59:46Z</time>
      </trkpt>
      <trkpt lat="43.51926" lon="1.12441">
        <ele>278.55</ele>
        <time>2017-12-16T15:59:50Z</time>
      </trkpt>
      <trkpt lat="43.51927" lon="1.12445">
        <ele>278.56</ele>
        <time>2017-12-16T15:59:52Z</time>
      </trkpt>
      <trkpt lat="43.51929" lon="1.12452">
        <ele>278.58</ele>
        <time>2017-12-16T15:59:57Z</time>
      </trkpt>
      <trkpt lat="43.51937" lon="1.12474">
        <ele>278.56</ele>
        <time>2017-12-16T16:00:11Z</time>
      </trkpt>
      <trkpt lat="43.51938" lon="1.12477">
        <ele>278.56</ele>
        <time>2017-12-16T16:00:13Z</time>
      </trkpt>
      <trkpt lat="43.51947" lon="1.12506">
        <ele>279.06</ele>
        <time>2017-12-16T16:00:31Z</time>
      </trkpt>
      <trkpt lat="43.51948" lon="1.12512">
        <ele>279.19</ele>
        <time>2017-12-16T16:00:35Z</time>
      </trkpt>
      <trkpt lat="43.51958" lon="1.12543">
        <ele>279.36</ele>
        <time>2017-12-16T16:00:52Z</time>
      </trkpt>
      <trkpt lat="43.51959" lon="1.12548">
        <ele>279.37</ele>
        <time>2017-12-16T16:00:55Z</time>
      </trkpt>
      <trkpt lat="43.51971" lon="1.12584">
        <ele>279.62</ele>
        <time>2017-12-16T16:01:16Z</time>
      </trkpt>
      <trkpt lat="43.51976" lon="1.12608">
        <ele>279.62</ele>
        <time>2017-12-16T16:01:29Z</time>
      </trkpt>
      <trkpt lat="43.5198" lon="1.12612">
        <ele>279.46</ele>
        <time>2017-12-16T16:01:33Z</time>
      </trkpt>
      <trkpt lat="43.5199" lon="1.12623">
        <ele>279.09</ele>
        <time>2017-12-16T16:01:44Z</time>
      </trkpt>
      <trkpt lat="43.51995" lon="1.12631">
        <ele>279.06</ele>
        <time>2017-12-16T16:01:52Z</time>
      </trkpt>
      <trkpt lat="43.51997" lon="1.12638">
        <ele>279.06</ele>
        <time>2017-12-16T16:01:57Z</time>
      </trkpt>
      <trkpt lat="43.52005" lon="1.12663">
        <ele>279.23</ele>
        <time>2017-12-16T16:02:13Z</time>
      </trkpt>
      <trkpt lat="43.52013" lon="1.12688">
        <ele>279.09</ele>
        <time>2017-12-16T16:02:30Z</time>
      </trkpt>
      <trkpt lat="43.52015" lon="1.12692">
        <ele>279.04</ele>
        <time>2017-12-16T16:02:33Z</time>
      </trkpt>
      <trkpt lat="43.52031" lon="1.12719">
        <ele>278.38</ele>
        <time>2017-12-16T16:02:52Z</time>
      </trkpt>
      <trkpt lat="43.52035" lon="1.12728">
        <ele>278.06</ele>
        <time>2017-12-16T16:03:09Z</time>
      </trkpt>
      <trkpt lat="43.52034" lon="1.12732">
        <ele>277.97</ele>
        <time>2017-12-16T16:03:29Z</time>
      </trkpt>
      <trkpt lat="43.52038" lon="1.12741">
        <ele>277.86</ele>
        <time>2017-12-16T16:03:35Z</time>
      </trkpt>
      <trkpt lat="43.52048" lon="1.12771">
        <ele>276.42</ele>
        <time>2017-12-16T16:03:52Z</time>
      </trkpt>
      <trkpt lat="43.52055" lon="1.128">
        <ele>275.66</ele>
        <time>2017-12-16T16:04:08Z</time>
      </trkpt>
      <trkpt lat="43.52067" lon="1.12835">
        <ele>274.14</ele>
        <time>2017-12-16T16:04:27Z</time>
      </trkpt>
      <trkpt lat="43.52078" lon="1.12867">
        <ele>272.78</ele>
        <time>2017-12-16T16:04:46Z</time>
      </trkpt>
      <trkpt lat="43.52089" lon="1.12897">
        <ele>271.39</ele>
        <time>2017-12-16T16:05:04Z</time>
      </trkpt>
      <trkpt lat="43.52093" lon="1.12921">
        <ele>270.32</ele>
        <time>2017-12-16T16:05:18Z</time>
      </trkpt>
      <trkpt lat="43.52098" lon="1.12932">
        <ele>269.92</ele>
        <time>2017-12-16T16:05:25Z</time>
      </trkpt>
      <trkpt lat="43.52115" lon="1.12961">
        <ele>268.25</ele>
        <time>2017-12-16T16:05:44Z</time>
      </trkpt>
      <trkpt lat="43.52126" lon="1.12985">
        <ele>267.24</ele>
        <time>2017-12-16T16:06:01Z</time>
      </trkpt>
      <trkpt lat="43.52132" lon="1.12999">
        <ele>266.98</ele>
        <time>2017-12-16T16:06:10Z</time>
      </trkpt>
      <trkpt lat="43.5214" lon="1.13032">
        <ele>266.09</ele>
        <time>2017-12-16T16:06:27Z</time>
      </trkpt>
      <trkpt lat="43.52146" lon="1.13067">
        <ele>266.27</ele>
        <time>2017-12-16T16:06:45Z</time>
      </trkpt>
      <trkpt lat="43.52146" lon="1.13074">
        <ele>266.32</ele>
        <time>2017-12-16T16:06:49Z</time>
      </trkpt>
      <trkpt lat="43.52153" lon="1.13105">
        <ele>266.4</ele>
        <time>2017-12-16T16:07:05Z</time>
      </trkpt>
      <trkpt lat="43.5216" lon="1.13126">
        <ele>266.27</ele>
        <time>2017-12-16T16:07:18Z</time>
      </trkpt>
      <trkpt lat="43.52163" lon="1.13136">
        <ele>266.33</ele>
        <time>2017-12-16T16:07:24Z</time>
      </trkpt>
      <trkpt lat="43.52178" lon="1.13166">
        <ele>266.2</ele>
        <time>2017-12-16T16:07:43Z</time>
      </trkpt>
      <trkpt lat="43.52179" lon="1.13168">
        <ele>266.2</ele>
        <time>2017-12-16T16:07:45Z</time>
      </trkpt>
      <trkpt lat="43.52191" lon="1.13197">
        <ele>266.45</ele>
        <time>2017-12-16T16:08:03Z</time>
      </trkpt>
      <trkpt lat="43.52194" lon="1.13206">
        <ele>266.65</ele>
        <time>2017-12-16T16:08:09Z</time>
      </trkpt>
      <trkpt lat="43.52205" lon="1.13236">
        <ele>266.54</ele>
        <time>2017-12-16T16:08:27Z</time>
      </trkpt>
      <trkpt lat="43.52206" lon="1.13239">
        <ele>266.52</ele>
        <time>2017-12-16T16:08:29Z</time>
      </trkpt>
      <trkpt lat="43.52213" lon="1.13257">
        <ele>266.34</ele>
        <time>2017-12-16T16:08:40Z</time>
      </trkpt>
      <trkpt lat="43.52216" lon="1.13278">
        <ele>266.11</ele>
        <time>2017-12-16T16:08:50Z</time>
      </trkpt>
      <trkpt lat="43.52217" lon="1.13287">
        <ele>266.1</ele>
        <time>2017-12-16T16:08:55Z</time>
      </trkpt>
      <trkpt lat="43.52219" lon="1.133">
        <ele>265.85</ele>
        <time>2017-12-16T16:09:03Z</time>
      </trkpt>
      <trkpt lat="43.52219" lon="1.1331">
        <ele>265</ele>
        <time>2017-12-16T16:09:18Z</time>
      </trkpt>
      <trkpt lat="43.52214" lon="1.13307">
        <ele>264.77</ele>
        <time>2017-12-16T16:09:50Z</time>
      </trkpt>
      <trkpt lat="43.52206" lon="1.13315">
        <ele>264.65</ele>
        <time>2017-12-16T16:10:17Z</time>
      </trkpt>
      <trkpt lat="43.52201" lon="1.13315">
        <ele>264.2</ele>
        <time>2017-12-16T16:10:21Z</time>
      </trkpt>
      <trkpt lat="43.52187" lon="1.13317">
        <ele>263.02</ele>
        <time>2017-12-16T16:10:31Z</time>
      </trkpt>
      <trkpt lat="43.52162" lon="1.13323">
        <ele>261.13</ele>
        <time>2017-12-16T16:10:48Z</time>
      </trkpt>
      <trkpt lat="43.52139" lon="1.13323">
        <ele>259.29</ele>
        <time>2017-12-16T16:11:06Z</time>
      </trkpt>
      <trkpt lat="43.52111" lon="1.13331">
        <ele>256.5</ele>
        <time>2017-12-16T16:11:26Z</time>
      </trkpt>
      <trkpt lat="43.52088" lon="1.13332">
        <ele>254.55</ele>
        <time>2017-12-16T16:11:43Z</time>
      </trkpt>
      <trkpt lat="43.52058" lon="1.13339">
        <ele>252.94</ele>
        <time>2017-12-16T16:12:02Z</time>
      </trkpt>
      <trkpt lat="43.52033" lon="1.13344">
        <ele>250.96</ele>
        <time>2017-12-16T16:12:21Z</time>
      </trkpt>
      <trkpt lat="43.52011" lon="1.13347">
        <ele>249.32</ele>
        <time>2017-12-16T16:12:39Z</time>
      </trkpt>
      <trkpt lat="43.51998" lon="1.13353">
        <ele>248.42</ele>
        <time>2017-12-16T16:12:53Z</time>
      </trkpt>
      <trkpt lat="43.52" lon="1.13355">
        <ele>248.09</ele>
        <time>2017-12-16T16:13:23Z</time>
      </trkpt>
      <trkpt lat="43.51999" lon="1.13403">
        <ele>246.91</ele>
        <time>2017-12-16T16:13:47Z</time>
      </trkpt>
      <trkpt lat="43.52002" lon="1.13434">
        <ele>245.68</ele>
        <time>2017-12-16T16:14:04Z</time>
      </trkpt>
      <trkpt lat="43.52002" lon="1.13468">
        <ele>244.38</ele>
        <time>2017-12-16T16:14:21Z</time>
      </trkpt>
      <trkpt lat="43.52002" lon="1.13474">
        <ele>244.21</ele>
        <time>2017-12-16T16:14:24Z</time>
      </trkpt>
      <trkpt lat="43.52007" lon="1.13483">
        <ele>243.7</ele>
        <time>2017-12-16T16:14:29Z</time>
      </trkpt>
      <trkpt lat="43.52004" lon="1.13508">
        <ele>242.99</ele>
        <time>2017-12-16T16:14:43Z</time>
      </trkpt>
      <trkpt lat="43.51996" lon="1.13519">
        <ele>242.5</ele>
        <time>2017-12-16T16:14:53Z</time>
      </trkpt>
      <trkpt lat="43.51979" lon="1.13534">
        <ele>241.18</ele>
        <time>2017-12-16T16:15:05Z</time>
      </trkpt>
      <trkpt lat="43.51973" lon="1.13542">
        <ele>240.65</ele>
        <time>2017-12-16T16:15:11Z</time>
      </trkpt>
      <trkpt lat="43.51959" lon="1.13562">
        <ele>238.95</ele>
        <time>2017-12-16T16:15:25Z</time>
      </trkpt>
      <trkpt lat="43.51954" lon="1.13569">
        <ele>238.64</ele>
        <time>2017-12-16T16:15:30Z</time>
      </trkpt>
      <trkpt lat="43.5195" lon="1.13573">
        <ele>238.35</ele>
        <time>2017-12-16T16:15:34Z</time>
      </trkpt>
      <trkpt lat="43.51934" lon="1.136">
        <ele>237.12</ele>
        <time>2017-12-16T16:15:51Z</time>
      </trkpt>
      <trkpt lat="43.51923" lon="1.13624">
        <ele>235.99</ele>
        <time>2017-12-16T16:16:05Z</time>
      </trkpt>
      <trkpt lat="43.51919" lon="1.13632">
        <ele>235.54</ele>
        <time>2017-12-16T16:16:11Z</time>
      </trkpt>
      <trkpt lat="43.51914" lon="1.13643">
        <ele>235.25</ele>
        <time>2017-12-16T16:16:18Z</time>
      </trkpt>
      <trkpt lat="43.51899" lon="1.13668">
        <ele>234.1</ele>
        <time>2017-12-16T16:16:33Z</time>
      </trkpt>
      <trkpt lat="43.51887" lon="1.13683">
        <ele>233.74</ele>
        <time>2017-12-16T16:16:44Z</time>
      </trkpt>
      <trkpt lat="43.51889" lon="1.13689">
        <ele>233.13</ele>
        <time>2017-12-16T16:16:59Z</time>
      </trkpt>
      <trkpt lat="43.51888" lon="1.13694">
        <ele>233.16</ele>
        <time>2017-12-16T16:17:15Z</time>
      </trkpt>
      <trkpt lat="43.51904" lon="1.13709">
        <ele>233.41</ele>
        <time>2017-12-16T16:17:31Z</time>
      </trkpt>
      <trkpt lat="43.51907" lon="1.13712">
        <ele>233.44</ele>
        <time>2017-12-16T16:17:34Z</time>
      </trkpt>
      <trkpt lat="43.51913" lon="1.13723">
        <ele>233.5</ele>
        <time>2017-12-16T16:17:42Z</time>
      </trkpt>
      <trkpt lat="43.5193" lon="1.13736">
        <ele>233.69</ele>
        <time>2017-12-16T16:17:57Z</time>
      </trkpt>
      <trkpt lat="43.51948" lon="1.13747">
        <ele>234.44</ele>
        <time>2017-12-16T16:18:18Z</time>
      </trkpt>
      <trkpt lat="43.51965" lon="1.13756">
        <ele>234.64</ele>
        <time>2017-12-16T16:18:31Z</time>
      </trkpt>
      <trkpt lat="43.51986" lon="1.13763">
        <ele>235.05</ele>
        <time>2017-12-16T16:18:47Z</time>
      </trkpt>
      <trkpt lat="43.51995" lon="1.13766">
        <ele>235.42</ele>
        <time>2017-12-16T16:18:54Z</time>
      </trkpt>
      <trkpt lat="43.52022" lon="1.13776">
        <ele>236.02</ele>
        <time>2017-12-16T16:19:12Z</time>
      </trkpt>
      <trkpt lat="43.5204" lon="1.13779">
        <ele>236.15</ele>
        <time>2017-12-16T16:19:26Z</time>
      </trkpt>
      <trkpt lat="43.52064" lon="1.13784">
        <ele>236.52</ele>
        <time>2017-12-16T16:19:43Z</time>
      </trkpt>
      <trkpt lat="43.52091" lon="1.13789">
        <ele>236.74</ele>
        <time>2017-12-16T16:20:02Z</time>
      </trkpt>
      <trkpt lat="43.52119" lon="1.13798">
        <ele>237.04</ele>
        <time>2017-12-16T16:20:22Z</time>
      </trkpt>
      <trkpt lat="43.52149" lon="1.13816">
        <ele>237.65</ele>
        <time>2017-12-16T16:20:46Z</time>
      </trkpt>
      <trkpt lat="43.52173" lon="1.13829">
        <ele>237.84</ele>
        <time>2017-12-16T16:21:04Z</time>
      </trkpt>
      <trkpt lat="43.52193" lon="1.13839">
        <ele>238.34</ele>
        <time>2017-12-16T16:21:20Z</time>
      </trkpt>
      <trkpt lat="43.52196" lon="1.13841">
        <ele>238.66</ele>
        <time>2017-12-16T16:21:37Z</time>
      </trkpt>
      <trkpt lat="43.52223" lon="1.13845">
        <ele>238.71</ele>
        <time>2017-12-16T16:21:57Z</time>
      </trkpt>
      <trkpt lat="43.52253" lon="1.13851">
        <ele>238.79</ele>
        <time>2017-12-16T16:22:20Z</time>
      </trkpt>
      <trkpt lat="43.52287" lon="1.13862">
        <ele>238.76</ele>
        <time>2017-12-16T16:22:46Z</time>
      </trkpt>
      <trkpt lat="43.52301" lon="1.1387">
        <ele>238.7</ele>
        <time>2017-12-16T16:23:01Z</time>
      </trkpt>
      <trkpt lat="43.52304" lon="1.13872">
        <ele>238.7</ele>
        <time>2017-12-16T16:23:04Z</time>
      </trkpt>
      <trkpt lat="43.52325" lon="1.13892">
        <ele>238.58</ele>
        <time>2017-12-16T16:23:25Z</time>
      </trkpt>
      <trkpt lat="43.52347" lon="1.13917">
        <ele>238.54</ele>
        <time>2017-12-16T16:23:49Z</time>
      </trkpt>
      <trkpt lat="43.52369" lon="1.13935">
        <ele>238.35</ele>
        <time>2017-12-16T16:24:08Z</time>
      </trkpt>
      <trkpt lat="43.52395" lon="1.13952">
        <ele>238.26</ele>
        <time>2017-12-16T16:24:30Z</time>
      </trkpt>
      <trkpt lat="43.52417" lon="1.13966">
        <ele>238.32</ele>
        <time>2017-12-16T16:24:49Z</time>
      </trkpt>
      <trkpt lat="43.52436" lon="1.13975">
        <ele>237.98</ele>
        <time>2017-12-16T16:25:07Z</time>
      </trkpt>
      <trkpt lat="43.52441" lon="1.13977">
        <ele>237.9</ele>
        <time>2017-12-16T16:25:11Z</time>
      </trkpt>
      <trkpt lat="43.52466" lon="1.13992">
        <ele>237.61</ele>
        <time>2017-12-16T16:25:31Z</time>
      </trkpt>
      <trkpt lat="43.52488" lon="1.14006">
        <ele>237.06</ele>
        <time>2017-12-16T16:25:50Z</time>
      </trkpt>
      <trkpt lat="43.52493" lon="1.1401">
        <ele>236.79</ele>
        <time>2017-12-16T16:25:56Z</time>
      </trkpt>
      <trkpt lat="43.52508" lon="1.14023">
        <ele>236.43</ele>
        <time>2017-12-16T16:26:11Z</time>
      </trkpt>
      <trkpt lat="43.5251" lon="1.14024">
        <ele>236.4</ele>
        <time>2017-12-16T16:26:12Z</time>
      </trkpt>
      <trkpt lat="43.5252" lon="1.1403">
        <ele>236.27</ele>
        <time>2017-12-16T16:26:21Z</time>
      </trkpt>
      <trkpt lat="43.52544" lon="1.14054">
        <ele>235.69</ele>
        <time>2017-12-16T16:26:44Z</time>
      </trkpt>
      <trkpt lat="43.52566" lon="1.14074">
        <ele>235.18</ele>
        <time>2017-12-16T16:27:03Z</time>
      </trkpt>
      <trkpt lat="43.52581" lon="1.14094">
        <ele>234.82</ele>
        <time>2017-12-16T16:27:19Z</time>
      </trkpt>
      <trkpt lat="43.52597" lon="1.14118">
        <ele>234.49</ele>
        <time>2017-12-16T16:27:35Z</time>
      </trkpt>
      <trkpt lat="43.52602" lon="1.14125">
        <ele>234.17</ele>
        <time>2017-12-16T16:27:39Z</time>
      </trkpt>
      <trkpt lat="43.52607" lon="1.14133">
        <ele>233.78</ele>
        <time>2017-12-16T16:27:44Z</time>
      </trkpt>
      <trkpt lat="43.52614" lon="1.14145">
        <ele>233.12</ele>
        <time>2017-12-16T16:27:54Z</time>
      </trkpt>
      <trkpt lat="43.52615" lon="1.14153">
        <ele>232.89</ele>
        <time>2017-12-16T16:27:58Z</time>
      </trkpt>
      <trkpt lat="43.52627" lon="1.14184">
        <ele>229.9</ele>
        <time>2017-12-16T16:28:17Z</time>
      </trkpt>
      <trkpt lat="43.52628" lon="1.14188">
        <ele>229.64</ele>
        <time>2017-12-16T16:28:20Z</time>
      </trkpt>
      <trkpt lat="43.52632" lon="1.14198">
        <ele>228.78</ele>
        <time>2017-12-16T16:28:26Z</time>
      </trkpt>
      <trkpt lat="43.52644" lon="1.14228">
        <ele>225.66</ele>
        <time>2017-12-16T16:28:46Z</time>
      </trkpt>
      <trkpt lat="43.52646" lon="1.14231">
        <ele>225.41</ele>
        <time>2017-12-16T16:28:48Z</time>
      </trkpt>
      <trkpt lat="43.52648" lon="1.14233">
        <ele>225.09</ele>
        <time>2017-12-16T16:28:50Z</time>
      </trkpt>
      <trkpt lat="43.52655" lon="1.14258">
        <ele>223.09</ele>
        <time>2017-12-16T16:29:06Z</time>
      </trkpt>
      <trkpt lat="43.52665" lon="1.14275">
        <ele>221.54</ele>
        <time>2017-12-16T16:29:18Z</time>
      </trkpt>
      <trkpt lat="43.52675" lon="1.14285">
        <ele>220.08</ele>
        <time>2017-12-16T16:29:26Z</time>
      </trkpt>
      <trkpt lat="43.52695" lon="1.14306">
        <ele>217.31</ele>
        <time>2017-12-16T16:29:44Z</time>
      </trkpt>
      <trkpt lat="43.52706" lon="1.14323">
        <ele>215.82</ele>
        <time>2017-12-16T16:29:57Z</time>
      </trkpt>
      <trkpt lat="43.52724" lon="1.14341">
        <ele>213.66</ele>
        <time>2017-12-16T16:30:11Z</time>
      </trkpt>
      <trkpt lat="43.52744" lon="1.14363">
        <ele>210.63</ele>
        <time>2017-12-16T16:30:30Z</time>
      </trkpt>
      <trkpt lat="43.52748" lon="1.14369">
        <ele>209.52</ele>
        <time>2017-12-16T16:30:36Z</time>
      </trkpt>
      <trkpt lat="43.52765" lon="1.14392">
        <ele>206.17</ele>
        <time>2017-12-16T16:30:54Z</time>
      </trkpt>
      <trkpt lat="43.52781" lon="1.14412">
        <ele>203.39</ele>
        <time>2017-12-16T16:31:11Z</time>
      </trkpt>
      <trkpt lat="43.528" lon="1.14435">
        <ele>200.77</ele>
        <time>2017-12-16T16:31:28Z</time>
      </trkpt>
      <trkpt lat="43.52805" lon="1.14439">
        <ele>200.22</ele>
        <time>2017-12-16T16:31:32Z</time>
      </trkpt>
      <trkpt lat="43.52811" lon="1.14447">
        <ele>199.35</ele>
        <time>2017-12-16T16:31:38Z</time>
      </trkpt>
      <trkpt lat="43.52824" lon="1.14464">
        <ele>197.56</ele>
        <time>2017-12-16T16:31:55Z</time>
      </trkpt>
      <trkpt lat="43.52841" lon="1.14478">
        <ele>196.59</ele>
        <time>2017-12-16T16:32:09Z</time>
      </trkpt>
      <trkpt lat="43.52839" lon="1.14477">
        <ele>196.43</ele>
        <time>2017-12-16T16:32:17Z</time>
      </trkpt>
      <trkpt lat="43.52843" lon="1.1448">
        <ele>196.36</ele>
        <time>2017-12-16T16:32:21Z</time>
      </trkpt>
      <trkpt lat="43.52846" lon="1.14487">
        <ele>196.3</ele>
        <time>2017-12-16T16:32:25Z</time>
      </trkpt>
      <trkpt lat="43.5285" lon="1.14501">
        <ele>196</ele>
        <time>2017-12-16T16:32:34Z</time>
      </trkpt>
      <trkpt lat="43.52849" lon="1.14506">
        <ele>195.9</ele>
        <time>2017-12-16T16:32:37Z</time>
      </trkpt>
      <trkpt lat="43.52846" lon="1.14534">
        <ele>195.89</ele>
        <time>2017-12-16T16:33:00Z</time>
      </trkpt>
      <trkpt lat="43.52841" lon="1.14557">
        <ele>195.89</ele>
        <time>2017-12-16T16:33:07Z</time>
      </trkpt>
      <trkpt lat="43.52839" lon="1.14568">
        <ele>195.77</ele>
        <time>2017-12-16T16:33:13Z</time>
      </trkpt>
      <trkpt lat="43.52847" lon="1.14579">
        <ele>195.51</ele>
        <time>2017-12-16T16:33:27Z</time>
      </trkpt>
      <trkpt lat="43.52851" lon="1.14577">
        <ele>195.46</ele>
        <time>2017-12-16T16:33:31Z</time>
      </trkpt>
    </trkseg>
  </trk>
</gpx>